Check out our new PWSWeather beta!
PWSweather.com
Personal Weather Stations
Station Observations
KD5LEN
Ktxnorth1, North Richland Hills, TX 76180

Ktxnorth1North Richland Hills, TX 76180

Lat: 32.885294, Lon: -97.236048

Elevation: 694

Station Type: Vantage Pro 2

http://www.atzer0.net/VWS/root/index.htm

High Low Average
Temperature 55.3°F12.9°C 39.0°F3.9°C 45.6°F7.6°C
Dew Point 39.5°F4.2°C 33.5°F0.8°C 36.3°F2.4°C
Winds 11.0 mph 17.7 kmh Calm Calm 3.0 mph S4.8 kmh S
Wind Gusts 13.0 mph20.9 kmh -- 7.0 mph11.3 kmh
Humidity 83% 54% 70%
Pressure 30.41 in1029.8 mb 30.26 in1024.7 mb -
Precipitation 0.00 in0.0 mm - -
Hour Temp Dew Point Humidity Winds Wind Gusts Pressure Precip Precip Rate Daily Precip Total
12:00 AM 40.8°F4.9°C 36.1°F2.3°C 83% 4.0 mph N6.4 kmh N 11.0 mph17.7 kmh 30.37 in1028.4 mb 0.00 in0.0 mm 0.00 in0.0 mm 0.00 in0.0 mm
12:02 AM 40.8°F4.9°C 36.1°F2.3°C 83% 6.0 mph NNW9.7 kmh NNW 6.0 mph9.7 kmh 30.38 in1028.8 mb 0.00 in0.0 mm 0.00 in0.0 mm 0.00 in0.0 mm
12:04 AM 40.8°F4.9°C 36.1°F2.3°C 83% 3.0 mph NNE4.8 kmh NNE 8.0 mph12.9 kmh 30.38 in1028.8 mb 0.00 in0.0 mm 0.00 in0.0 mm 0.00 in0.0 mm
12:06 AM 40.8°F4.9°C 36.1°F2.3°C 83% 3.0 mph NNW4.8 kmh NNW 8.0 mph12.9 kmh 30.38 in1028.8 mb 0.00 in0.0 mm 0.00 in0.0 mm 0.00 in0.0 mm
12:08 AM 40.7°F4.8°C 36.0°F2.2°C 83% 8.0 mph NNW12.9 kmh NNW 9.0 mph14.5 kmh 30.38 in1028.8 mb 0.00 in0.0 mm 0.00 in0.0 mm 0.00 in0.0 mm
12:10 AM 40.7°F4.8°C 36.0°F2.2°C 83% 1.0 mph NW1.6 kmh NW 9.0 mph14.5 kmh 30.38 in1028.8 mb 0.00 in0.0 mm 0.00 in0.0 mm 0.00 in0.0 mm
12:12 AM 40.7°F4.8°C 36.0°F2.2°C 83% 4.0 mph NE6.4 kmh NE 9.0 mph14.5 kmh 30.37 in1028.4 mb 0.00 in0.0 mm 0.00 in0.0 mm 0.00 in0.0 mm
12:14 AM 40.7°F4.8°C 36.0°F2.2°C 83% 8.0 mph NW12.9 kmh NW 9.0 mph14.5 kmh 30.37 in1028.4 mb 0.00 in0.0 mm 0.00 in0.0 mm 0.00 in0.0 mm
12:16 AM 40.7°F4.8°C 36.0°F2.2°C 83% 4.0 mph N6.4 kmh N 9.0 mph14.5 kmh 30.37 in1028.4 mb 0.00 in0.0 mm 0.00 in0.0 mm 0.00 in0.0 mm
12:18 AM 40.7°F4.8°C 36.0°F2.2°C 83% 6.0 mph NNW9.7 kmh NNW 9.0 mph14.5 kmh 30.37 in1028.4 mb 0.00 in0.0 mm 0.00 in0.0 mm 0.00 in0.0 mm
12:20 AM 40.7°F4.8°C 36.0°F2.2°C 83% 2.0 mph N3.2 kmh N 9.0 mph14.5 kmh 30.37 in1028.4 mb 0.00 in0.0 mm 0.00 in0.0 mm 0.00 in0.0 mm
12:22 AM 40.7°F4.8°C 36.0°F2.2°C 83% 4.0 mph NNE6.4 kmh NNE 9.0 mph14.5 kmh 30.37 in1028.4 mb 0.00 in0.0 mm 0.00 in0.0 mm 0.00 in0.0 mm
12:24 AM 40.7°F4.8°C 36.0°F2.2°C 83% 2.0 mph NNW3.2 kmh NNW 9.0 mph14.5 kmh 30.37 in1028.4 mb 0.00 in0.0 mm 0.00 in0.0 mm 0.00 in0.0 mm
12:26 AM 40.7°F4.8°C 36.0°F2.2°C 83% 4.0 mph NNW6.4 kmh NNW 10.0 mph16.1 kmh 30.37 in1028.4 mb 0.00 in0.0 mm 0.00 in0.0 mm 0.00 in0.0 mm
12:28 AM 40.7°F4.8°C 36.0°F2.2°C 83% 8.0 mph NNW12.9 kmh NNW 12.0 mph19.3 kmh 30.36 in1028.1 mb 0.00 in0.0 mm 0.00 in0.0 mm 0.00 in0.0 mm
12:30 AM 40.7°F4.8°C 36.0°F2.2°C 83% 2.0 mph NNW3.2 kmh NNW 12.0 mph19.3 kmh 30.37 in1028.4 mb 0.00 in0.0 mm 0.00 in0.0 mm 0.00 in0.0 mm
12:32 AM 40.8°F4.9°C 36.1°F2.3°C 83% 1.0 mph N1.6 kmh N 3.0 mph4.8 kmh 30.37 in1028.4 mb 0.00 in0.0 mm 0.00 in0.0 mm 0.00 in0.0 mm
12:34 AM 40.7°F4.8°C 36.0°F2.2°C 83% 7.0 mph NNE11.3 kmh NNE 9.0 mph14.5 kmh 30.36 in1028.1 mb 0.00 in0.0 mm 0.00 in0.0 mm 0.00 in0.0 mm
12:36 AM 40.7°F4.8°C 36.0°F2.2°C 83% 4.0 mph N6.4 kmh N 10.0 mph16.1 kmh 30.36 in1028.1 mb 0.00 in0.0 mm 0.00 in0.0 mm 0.00 in0.0 mm
12:38 AM 40.7°F4.8°C 36.0°F2.2°C 83% 6.0 mph N9.7 kmh N 10.0 mph16.1 kmh 30.36 in1028.1 mb 0.00 in0.0 mm 0.00 in0.0 mm 0.00 in0.0 mm
12:40 AM 40.6°F4.8°C 35.9°F2.2°C 83% 7.0 mph N11.3 kmh N 10.0 mph16.1 kmh 30.37 in1028.4 mb 0.00 in0.0 mm 0.00 in0.0 mm 0.00 in0.0 mm
12:42 AM 40.6°F4.8°C 35.9°F2.2°C 83% 2.0 mph N3.2 kmh N 10.0 mph16.1 kmh 30.37 in1028.4 mb 0.00 in0.0 mm 0.00 in0.0 mm 0.00 in0.0 mm
12:44 AM 40.7°F4.8°C 36.0°F2.2°C 83% 10.0 mph NNW16.1 kmh NNW 12.0 mph19.3 kmh 30.37 in1028.4 mb 0.00 in0.0 mm 0.00 in0.0 mm 0.00 in0.0 mm
12:46 AM 40.7°F4.8°C 36.0°F2.2°C 83% 9.0 mph NNW14.5 kmh NNW 12.0 mph19.3 kmh 30.37 in1028.4 mb 0.00 in0.0 mm 0.00 in0.0 mm 0.00 in0.0 mm
12:48 AM 40.7°F4.8°C 35.6°F2.0°C 82% 8.0 mph NW12.9 kmh NW 12.0 mph19.3 kmh 30.37 in1028.4 mb 0.00 in0.0 mm 0.00 in0.0 mm 0.00 in0.0 mm
12:50 AM 40.7°F4.8°C 35.6°F2.0°C 82% 3.0 mph N4.8 kmh N 12.0 mph19.3 kmh 30.37 in1028.4 mb 0.00 in0.0 mm 0.00 in0.0 mm 0.00 in0.0 mm
12:52 AM 40.8°F4.9°C 35.7°F2.1°C 82% 1.0 mph N1.6 kmh N 12.0 mph19.3 kmh 30.37 in1028.4 mb 0.00 in0.0 mm 0.00 in0.0 mm 0.00 in0.0 mm
12:54 AM 40.8°F4.9°C 35.7°F2.1°C 82% 3.0 mph N4.8 kmh N 12.0 mph19.3 kmh 30.37 in1028.4 mb 0.00 in0.0 mm 0.00 in0.0 mm 0.00 in0.0 mm
12:56 AM 40.8°F4.9°C 35.7°F2.1°C 82% 6.0 mph N9.7 kmh N 13.0 mph20.9 kmh 30.36 in1028.1 mb 0.00 in0.0 mm 0.00 in0.0 mm 0.00 in0.0 mm
12:58 AM 40.8°F4.9°C 35.7°F2.1°C 82% 2.0 mph N3.2 kmh N 13.0 mph20.9 kmh 30.36 in1028.1 mb 0.00 in0.0 mm 0.00 in0.0 mm 0.00 in0.0 mm
01:00 AM 40.8°F4.9°C 35.7°F2.1°C 82% 5.0 mph NNE8.0 kmh NNE 13.0 mph20.9 kmh 30.36 in1028.1 mb 0.00 in0.0 mm 0.00 in0.0 mm 0.00 in0.0 mm
01:02 AM 40.8°F4.9°C 35.7°F2.1°C 82% 2.0 mph NW3.2 kmh NW 2.0 mph3.2 kmh 30.37 in1028.4 mb 0.00 in0.0 mm 0.00 in0.0 mm 0.00 in0.0 mm
01:04 AM 40.8°F4.9°C 35.7°F2.1°C 82% 4.0 mph NW6.4 kmh NW 8.0 mph12.9 kmh 30.37 in1028.4 mb 0.00 in0.0 mm 0.00 in0.0 mm 0.00 in0.0 mm
01:06 AM 40.8°F4.9°C 35.7°F2.1°C 82% 3.0 mph NW4.8 kmh NW 8.0 mph12.9 kmh 30.37 in1028.4 mb 0.00 in0.0 mm 0.00 in0.0 mm 0.00 in0.0 mm
01:08 AM 40.8°F4.9°C 35.7°F2.1°C 82% 10.0 mph NW16.1 kmh NW 13.0 mph20.9 kmh 30.37 in1028.4 mb 0.00 in0.0 mm 0.00 in0.0 mm 0.00 in0.0 mm
01:10 AM 40.8°F4.9°C 35.4°F1.9°C 81% 5.0 mph NE8.0 kmh NE 13.0 mph20.9 kmh 30.36 in1028.1 mb 0.00 in0.0 mm 0.00 in0.0 mm 0.00 in0.0 mm
01:12 AM 40.8°F4.9°C 35.4°F1.9°C 81% 9.0 mph WNW14.5 kmh WNW 13.0 mph20.9 kmh 30.36 in1028.1 mb 0.00 in0.0 mm 0.00 in0.0 mm 0.00 in0.0 mm
01:14 AM 40.8°F4.9°C 35.4°F1.9°C 81% 1.0 mph NNW1.6 kmh NNW 13.0 mph20.9 kmh 30.36 in1028.1 mb 0.00 in0.0 mm 0.00 in0.0 mm 0.00 in0.0 mm
01:16 AM 40.8°F4.9°C 35.4°F1.9°C 81% 2.0 mph NNW3.2 kmh NNW 13.0 mph20.9 kmh 30.36 in1028.1 mb 0.00 in0.0 mm 0.00 in0.0 mm 0.00 in0.0 mm
01:18 AM 40.8°F4.9°C 35.4°F1.9°C 81% 6.0 mph N9.7 kmh N 13.0 mph20.9 kmh 30.36 in1028.1 mb 0.00 in0.0 mm 0.00 in0.0 mm 0.00 in0.0 mm
01:20 AM 40.8°F4.9°C 35.4°F1.9°C 81% Calm Calm 13.0 mph20.9 kmh 30.36 in1028.1 mb 0.00 in0.0 mm 0.00 in0.0 mm 0.00 in0.0 mm
01:22 AM 40.8°F4.9°C 35.4°F1.9°C 81% 4.0 mph NNW6.4 kmh NNW 13.0 mph20.9 kmh 30.36 in1028.1 mb 0.00 in0.0 mm 0.00 in0.0 mm 0.00 in0.0 mm
01:24 AM 40.8°F4.9°C 35.4°F1.9°C 81% 5.0 mph NW8.0 kmh NW 13.0 mph20.9 kmh 30.36 in1028.1 mb 0.00 in0.0 mm 0.00 in0.0 mm 0.00 in0.0 mm
01:26 AM 40.7°F4.8°C 35.3°F1.8°C 81% 1.0 mph N1.6 kmh N 13.0 mph20.9 kmh 30.36 in1028.1 mb 0.00 in0.0 mm 0.00 in0.0 mm 0.00 in0.0 mm
01:28 AM 40.8°F4.9°C 35.4°F1.9°C 81% 9.0 mph NNW14.5 kmh NNW 13.0 mph20.9 kmh 30.36 in1028.1 mb 0.00 in0.0 mm 0.00 in0.0 mm 0.00 in0.0 mm
01:30 AM 40.7°F4.8°C 35.3°F1.8°C 81% 2.0 mph N3.2 kmh N 13.0 mph20.9 kmh 30.36 in1028.1 mb 0.00 in0.0 mm 0.00 in0.0 mm 0.00 in0.0 mm
01:32 AM 40.7°F4.8°C 35.3°F1.8°C 81% 5.0 mph N8.0 kmh N 7.0 mph11.3 kmh 30.36 in1028.1 mb 0.00 in0.0 mm 0.00 in0.0 mm 0.00 in0.0 mm
01:34 AM 40.7°F4.8°C 35.3°F1.8°C 81% 4.0 mph N6.4 kmh N 7.0 mph11.3 kmh 30.36 in1028.1 mb 0.00 in0.0 mm 0.00 in0.0 mm 0.00 in0.0 mm
01:36 AM 40.7°F4.8°C 35.3°F1.8°C 81% 3.0 mph N4.8 kmh N 9.0 mph14.5 kmh 30.36 in1028.1 mb 0.00 in0.0 mm 0.00 in0.0 mm 0.00 in0.0 mm
01:38 AM 40.7°F4.8°C 35.3°F1.8°C 81% 3.0 mph N4.8 kmh N 9.0 mph14.5 kmh 30.36 in1028.1 mb 0.00 in0.0 mm 0.00 in0.0 mm 0.00 in0.0 mm
01:40 AM 40.6°F4.8°C 35.2°F1.8°C 81% 4.0 mph NE6.4 kmh NE 12.0 mph19.3 kmh 30.36 in1028.1 mb 0.00 in0.0 mm 0.00 in0.0 mm 0.00 in0.0 mm
01:42 AM 40.7°F4.8°C 35.0°F1.7°C 80% 6.0 mph NNW9.7 kmh NNW 12.0 mph19.3 kmh 30.36 in1028.1 mb 0.00 in0.0 mm 0.00 in0.0 mm 0.00 in0.0 mm
01:44 AM 40.6°F4.8°C 34.9°F1.6°C 80% 3.0 mph NW4.8 kmh NW 12.0 mph19.3 kmh 30.36 in1028.1 mb 0.00 in0.0 mm 0.00 in0.0 mm 0.00 in0.0 mm
01:46 AM 40.6°F4.8°C 35.2°F1.8°C 81% 3.0 mph N4.8 kmh N 12.0 mph19.3 kmh 30.36 in1028.1 mb 0.00 in0.0 mm 0.00 in0.0 mm 0.00 in0.0 mm
01:48 AM 40.7°F4.8°C 35.0°F1.7°C 80% 5.0 mph NW8.0 kmh NW 12.0 mph19.3 kmh 30.36 in1028.1 mb 0.00 in0.0 mm 0.00 in0.0 mm 0.00 in0.0 mm
01:50 AM 40.7°F4.8°C 35.0°F1.7°C 80% 6.0 mph NE9.7 kmh NE 12.0 mph19.3 kmh 30.36 in1028.1 mb 0.00 in0.0 mm 0.00 in0.0 mm 0.00 in0.0 mm
01:52 AM 40.7°F4.8°C 35.0°F1.7°C 80% 5.0 mph NW8.0 kmh NW 12.0 mph19.3 kmh 30.36 in1028.1 mb 0.00 in0.0 mm 0.00 in0.0 mm 0.00 in0.0 mm
01:54 AM 40.7°F4.8°C 35.0°F1.7°C 80% 3.0 mph NE4.8 kmh NE 12.0 mph19.3 kmh 30.36 in1028.1 mb 0.00 in0.0 mm 0.00 in0.0 mm 0.00 in0.0 mm
01:56 AM 40.7°F4.8°C 35.0°F1.7°C 80% 5.0 mph NNW8.0 kmh NNW 12.0 mph19.3 kmh 30.36 in1028.1 mb 0.00 in0.0 mm 0.00 in0.0 mm 0.00 in0.0 mm
01:58 AM 40.7°F4.8°C 35.0°F1.7°C 80% 4.0 mph NW6.4 kmh NW 12.0 mph19.3 kmh 30.36 in1028.1 mb 0.00 in0.0 mm 0.00 in0.0 mm 0.00 in0.0 mm
02:00 AM 40.7°F4.8°C 35.0°F1.7°C 80% 2.0 mph NE3.2 kmh NE 12.0 mph19.3 kmh 30.36 in1028.1 mb 0.00 in0.0 mm 0.00 in0.0 mm 0.00 in0.0 mm
02:02 AM 40.8°F4.9°C 35.1°F1.7°C 80% 5.0 mph N8.0 kmh N 5.0 mph8.0 kmh 30.36 in1028.1 mb 0.00 in0.0 mm 0.00 in0.0 mm 0.00 in0.0 mm
02:04 AM 40.8°F4.9°C 35.1°F1.7°C 80% 3.0 mph NNW4.8 kmh NNW 11.0 mph17.7 kmh 30.37 in1028.4 mb 0.00 in0.0 mm 0.00 in0.0 mm 0.00 in0.0 mm
02:06 AM 40.8°F4.9°C 35.1°F1.7°C 80% 4.0 mph N6.4 kmh N 11.0 mph17.7 kmh 30.36 in1028.1 mb 0.00 in0.0 mm 0.00 in0.0 mm 0.00 in0.0 mm
02:08 AM 40.8°F4.9°C 35.1°F1.7°C 80% 4.0 mph NW6.4 kmh NW 11.0 mph17.7 kmh 30.37 in1028.4 mb 0.00 in0.0 mm 0.00 in0.0 mm 0.00 in0.0 mm
02:10 AM 40.8°F4.9°C 35.1°F1.7°C 80% 6.0 mph NNW9.7 kmh NNW 11.0 mph17.7 kmh 30.37 in1028.4 mb 0.00 in0.0 mm 0.00 in0.0 mm 0.00 in0.0 mm
02:12 AM 40.8°F4.9°C 34.8°F1.6°C 79% 2.0 mph N3.2 kmh N 11.0 mph17.7 kmh 30.37 in1028.4 mb 0.00 in0.0 mm 0.00 in0.0 mm 0.00 in0.0 mm
02:14 AM 40.8°F4.9°C 35.1°F1.7°C 80% 4.0 mph NW6.4 kmh NW 11.0 mph17.7 kmh 30.37 in1028.4 mb 0.00 in0.0 mm 0.00 in0.0 mm 0.00 in0.0 mm
02:16 AM 40.8°F4.9°C 35.1°F1.7°C 80% 4.0 mph NNW6.4 kmh NNW 11.0 mph17.7 kmh 30.37 in1028.4 mb 0.00 in0.0 mm 0.00 in0.0 mm 0.00 in0.0 mm
02:18 AM 40.8°F4.9°C 35.1°F1.7°C 80% 4.0 mph N6.4 kmh N 11.0 mph17.7 kmh 30.37 in1028.4 mb 0.00 in0.0 mm 0.00 in0.0 mm 0.00 in0.0 mm
02:20 AM 40.9°F4.9°C 35.2°F1.8°C 80% 1.0 mph NW1.6 kmh NW 11.0 mph17.7 kmh 30.37 in1028.4 mb 0.00 in0.0 mm 0.00 in0.0 mm 0.00 in0.0 mm
02:22 AM 40.9°F4.9°C 35.2°F1.8°C 80% 4.0 mph N6.4 kmh N 11.0 mph17.7 kmh 30.36 in1028.1 mb 0.00 in0.0 mm 0.00 in0.0 mm 0.00 in0.0 mm
02:24 AM 40.9°F4.9°C 34.9°F1.6°C 79% 5.0 mph N8.0 kmh N 11.0 mph17.7 kmh 30.37 in1028.4 mb 0.00 in0.0 mm 0.00 in0.0 mm 0.00 in0.0 mm
02:26 AM 40.8°F4.9°C 34.8°F1.6°C 79% 5.0 mph N8.0 kmh N 11.0 mph17.7 kmh 30.36 in1028.1 mb 0.00 in0.0 mm 0.00 in0.0 mm 0.00 in0.0 mm
02:28 AM 40.8°F4.9°C 34.8°F1.6°C 79% 10.0 mph NW16.1 kmh NW 11.0 mph17.7 kmh 30.36 in1028.1 mb 0.00 in0.0 mm 0.00 in0.0 mm 0.00 in0.0 mm
02:30 AM 40.8°F4.9°C 34.5°F1.4°C 78% 5.0 mph NNE8.0 kmh NNE 11.0 mph17.7 kmh 30.36 in1028.1 mb 0.00 in0.0 mm 0.00 in0.0 mm 0.00 in0.0 mm
02:32 AM 40.8°F4.9°C 34.5°F1.4°C 78% 3.0 mph NNW4.8 kmh NNW 3.0 mph4.8 kmh 30.35 in1027.8 mb 0.00 in0.0 mm 0.00 in0.0 mm 0.00 in0.0 mm
02:34 AM 40.8°F4.9°C 34.5°F1.4°C 78% 8.0 mph N12.9 kmh N 8.0 mph12.9 kmh 30.35 in1027.8 mb 0.00 in0.0 mm 0.00 in0.0 mm 0.00 in0.0 mm
02:36 AM 40.8°F4.9°C 34.5°F1.4°C 78% 5.0 mph NW8.0 kmh NW 8.0 mph12.9 kmh 30.35 in1027.8 mb 0.00 in0.0 mm 0.00 in0.0 mm 0.00 in0.0 mm
02:38 AM 40.8°F4.9°C 34.5°F1.4°C 78% 5.0 mph NNE8.0 kmh NNE 8.0 mph12.9 kmh 30.35 in1027.8 mb 0.00 in0.0 mm 0.00 in0.0 mm 0.00 in0.0 mm
02:40 AM 40.8°F4.9°C 34.5°F1.4°C 78% 4.0 mph NE6.4 kmh NE 10.0 mph16.1 kmh 30.35 in1027.8 mb 0.00 in0.0 mm 0.00 in0.0 mm 0.00 in0.0 mm
02:42 AM 40.8°F4.9°C 34.5°F1.4°C 78% 3.0 mph N4.8 kmh N 10.0 mph16.1 kmh 30.36 in1028.1 mb 0.00 in0.0 mm 0.00 in0.0 mm 0.00 in0.0 mm
02:44 AM 40.7°F4.8°C 34.4°F1.3°C 78% 3.0 mph N4.8 kmh N 10.0 mph16.1 kmh 30.36 in1028.1 mb 0.00 in0.0 mm 0.00 in0.0 mm 0.00 in0.0 mm
02:46 AM 40.8°F4.9°C 34.5°F1.4°C 78% 4.0 mph N6.4 kmh N 10.0 mph16.1 kmh 30.35 in1027.8 mb 0.00 in0.0 mm 0.00 in0.0 mm 0.00 in0.0 mm
02:48 AM 40.8°F4.9°C 34.5°F1.4°C 78% 5.0 mph N8.0 kmh N 11.0 mph17.7 kmh 30.36 in1028.1 mb 0.00 in0.0 mm 0.00 in0.0 mm 0.00 in0.0 mm
02:50 AM 40.8°F4.9°C 34.5°F1.4°C 78% 2.0 mph NNE3.2 kmh NNE 11.0 mph17.7 kmh 30.35 in1027.8 mb 0.00 in0.0 mm 0.00 in0.0 mm 0.00 in0.0 mm
02:52 AM 40.8°F4.9°C 34.5°F1.4°C 78% 8.0 mph N12.9 kmh N 11.0 mph17.7 kmh 30.36 in1028.1 mb 0.00 in0.0 mm 0.00 in0.0 mm 0.00 in0.0 mm
02:54 AM 40.8°F4.9°C 34.5°F1.4°C 78% 3.0 mph NE4.8 kmh NE 11.0 mph17.7 kmh 30.36 in1028.1 mb 0.00 in0.0 mm 0.00 in0.0 mm 0.00 in0.0 mm
02:56 AM 40.8°F4.9°C 34.5°F1.4°C 78% 7.0 mph N11.3 kmh N 11.0 mph17.7 kmh 30.36 in1028.1 mb 0.00 in0.0 mm 0.00 in0.0 mm 0.00 in0.0 mm
02:58 AM 40.8°F4.9°C 34.5°F1.4°C 78% 5.0 mph NE8.0 kmh NE 11.0 mph17.7 kmh 30.35 in1027.8 mb 0.00 in0.0 mm 0.00 in0.0 mm 0.00 in0.0 mm
03:00 AM 40.7°F4.8°C 34.4°F1.3°C 78% 5.0 mph NNE8.0 kmh NNE 12.0 mph19.3 kmh 30.36 in1028.1 mb 0.00 in0.0 mm 0.00 in0.0 mm 0.00 in0.0 mm
03:02 AM 40.7°F4.8°C 34.4°F1.3°C 78% 3.0 mph NE4.8 kmh NE 6.0 mph9.7 kmh 30.35 in1027.8 mb 0.00 in0.0 mm 0.00 in0.0 mm 0.00 in0.0 mm
03:04 AM 40.7°F4.8°C 34.4°F1.3°C 78% 5.0 mph NNE8.0 kmh NNE 9.0 mph14.5 kmh 30.36 in1028.1 mb 0.00 in0.0 mm 0.00 in0.0 mm 0.00 in0.0 mm
03:06 AM 40.7°F4.8°C 34.4°F1.3°C 78% 3.0 mph ENE4.8 kmh ENE 9.0 mph14.5 kmh 30.36 in1028.1 mb 0.00 in0.0 mm 0.00 in0.0 mm 0.00 in0.0 mm
03:08 AM 40.7°F4.8°C 34.4°F1.3°C 78% 4.0 mph NNE6.4 kmh NNE 9.0 mph14.5 kmh 30.36 in1028.1 mb 0.00 in0.0 mm 0.00 in0.0 mm 0.00 in0.0 mm
03:10 AM 40.8°F4.9°C 34.5°F1.4°C 78% 2.0 mph N3.2 kmh N 9.0 mph14.5 kmh 30.36 in1028.1 mb 0.00 in0.0 mm 0.00 in0.0 mm 0.00 in0.0 mm
03:12 AM 40.8°F4.9°C 34.5°F1.4°C 78% 2.0 mph N3.2 kmh N 9.0 mph14.5 kmh 30.36 in1028.1 mb 0.00 in0.0 mm 0.00 in0.0 mm 0.00 in0.0 mm
03:14 AM 40.8°F4.9°C 34.5°F1.4°C 78% 7.0 mph N11.3 kmh N 9.0 mph14.5 kmh 30.36 in1028.1 mb 0.00 in0.0 mm 0.00 in0.0 mm 0.00 in0.0 mm
03:16 AM 40.7°F4.8°C 34.4°F1.3°C 78% 5.0 mph NW8.0 kmh NW 9.0 mph14.5 kmh 30.36 in1028.1 mb 0.00 in0.0 mm 0.00 in0.0 mm 0.00 in0.0 mm
03:18 AM 40.7°F4.8°C 34.4°F1.3°C 78% 4.0 mph N6.4 kmh N 9.0 mph14.5 kmh 30.36 in1028.1 mb 0.00 in0.0 mm 0.00 in0.0 mm 0.00 in0.0 mm
03:20 AM 40.7°F4.8°C 34.4°F1.3°C 78% 2.0 mph NNW3.2 kmh NNW 11.0 mph17.7 kmh 30.36 in1028.1 mb 0.00 in0.0 mm 0.00 in0.0 mm 0.00 in0.0 mm
03:22 AM 40.7°F4.8°C 34.4°F1.3°C 78% 2.0 mph N3.2 kmh N 11.0 mph17.7 kmh 30.36 in1028.1 mb 0.00 in0.0 mm 0.00 in0.0 mm 0.00 in0.0 mm
03:24 AM 40.7°F4.8°C 34.4°F1.3°C 78% 4.0 mph N6.4 kmh N 11.0 mph17.7 kmh 30.36 in1028.1 mb 0.00 in0.0 mm 0.00 in0.0 mm 0.00 in0.0 mm
03:26 AM 40.7°F4.8°C 34.4°F1.3°C 78% 4.0 mph N6.4 kmh N 11.0 mph17.7 kmh 30.36 in1028.1 mb 0.00 in0.0 mm 0.00 in0.0 mm 0.00 in0.0 mm
03:28 AM 40.8°F4.9°C 34.5°F1.4°C 78% 4.0 mph NNW6.4 kmh NNW 11.0 mph17.7 kmh 30.36 in1028.1 mb 0.00 in0.0 mm 0.00 in0.0 mm 0.00 in0.0 mm
03:30 AM 40.8°F4.9°C 34.5°F1.4°C 78% 6.0 mph NNW9.7 kmh NNW 11.0 mph17.7 kmh 30.36 in1028.1 mb 0.00 in0.0 mm 0.00 in0.0 mm 0.00 in0.0 mm
03:32 AM 40.7°F4.8°C 34.4°F1.3°C 78% 2.0 mph NW3.2 kmh NW 2.0 mph3.2 kmh 30.36 in1028.1 mb 0.00 in0.0 mm 0.00 in0.0 mm 0.00 in0.0 mm
03:34 AM 40.7°F4.8°C 34.1°F1.2°C 77% 5.0 mph NNW8.0 kmh NNW 10.0 mph16.1 kmh 30.36 in1028.1 mb 0.00 in0.0 mm 0.00 in0.0 mm 0.00 in0.0 mm
03:36 AM 40.7°F4.8°C 34.1°F1.2°C 77% 3.0 mph N4.8 kmh N 10.0 mph16.1 kmh 30.36 in1028.1 mb 0.00 in0.0 mm 0.00 in0.0 mm 0.00 in0.0 mm
03:38 AM 40.6°F4.8°C 34.3°F1.3°C 78% 4.0 mph NNW6.4 kmh NNW 10.0 mph16.1 kmh 30.36 in1028.1 mb 0.00 in0.0 mm 0.00 in0.0 mm 0.00 in0.0 mm
03:40 AM 40.6°F4.8°C 34.3°F1.3°C 78% 5.0 mph NNW8.0 kmh NNW 10.0 mph16.1 kmh 30.36 in1028.1 mb 0.00 in0.0 mm 0.00 in0.0 mm 0.00 in0.0 mm
03:42 AM 40.6°F4.8°C 34.3°F1.3°C 78% 3.0 mph N4.8 kmh N 10.0 mph16.1 kmh 30.37 in1028.4 mb 0.00 in0.0 mm 0.00 in0.0 mm 0.00 in0.0 mm
03:44 AM 40.6°F4.8°C 34.3°F1.3°C 78% 2.0 mph N3.2 kmh N 10.0 mph16.1 kmh 30.36 in1028.1 mb 0.00 in0.0 mm 0.00 in0.0 mm 0.00 in0.0 mm
03:46 AM 40.5°F4.7°C 33.9°F1.1°C 77% 3.0 mph N4.8 kmh N 10.0 mph16.1 kmh 30.36 in1028.1 mb 0.00 in0.0 mm 0.00 in0.0 mm 0.00 in0.0 mm
03:48 AM 40.5°F4.7°C 34.2°F1.2°C 78% 2.0 mph NNE3.2 kmh NNE 10.0 mph16.1 kmh 30.36 in1028.1 mb 0.00 in0.0 mm 0.00 in0.0 mm 0.00 in0.0 mm
03:50 AM 40.6°F4.8°C 34.3°F1.3°C 78% 3.0 mph N4.8 kmh N 10.0 mph16.1 kmh 30.36 in1028.1 mb 0.00 in0.0 mm 0.00 in0.0 mm 0.00 in0.0 mm
03:52 AM 40.5°F4.7°C 34.2°F1.2°C 78% 2.0 mph NNE3.2 kmh NNE 10.0 mph16.1 kmh 30.36 in1028.1 mb 0.00 in0.0 mm 0.00 in0.0 mm 0.00 in0.0 mm
03:54 AM 40.5°F4.7°C 34.2°F1.2°C 78% 3.0 mph NW4.8 kmh NW 10.0 mph16.1 kmh 30.35 in1027.8 mb 0.00 in0.0 mm 0.00 in0.0 mm 0.00 in0.0 mm
03:56 AM 40.5°F4.7°C 34.2°F1.2°C 78% 6.0 mph NW9.7 kmh NW 10.0 mph16.1 kmh 30.36 in1028.1 mb 0.00 in0.0 mm 0.00 in0.0 mm 0.00 in0.0 mm
03:58 AM 40.5°F4.7°C 34.2°F1.2°C 78% 5.0 mph NNW8.0 kmh NNW 10.0 mph16.1 kmh 30.36 in1028.1 mb 0.00 in0.0 mm 0.00 in0.0 mm 0.00 in0.0 mm
04:00 AM 40.5°F4.7°C 33.9°F1.1°C 77% 4.0 mph NNW6.4 kmh NNW 10.0 mph16.1 kmh 30.36 in1028.1 mb 0.00 in0.0 mm 0.00 in0.0 mm 0.00 in0.0 mm
04:02 AM 40.5°F4.7°C 34.2°F1.2°C 78% 3.0 mph NW4.8 kmh NW 6.0 mph9.7 kmh 30.37 in1028.4 mb 0.00 in0.0 mm 0.00 in0.0 mm 0.00 in0.0 mm
04:04 AM 40.5°F4.7°C 34.2°F1.2°C 78% 6.0 mph NNW9.7 kmh NNW 9.0 mph14.5 kmh 30.37 in1028.4 mb 0.00 in0.0 mm 0.00 in0.0 mm 0.00 in0.0 mm
04:06 AM 40.5°F4.7°C 34.2°F1.2°C 78% 2.0 mph N3.2 kmh N 9.0 mph14.5 kmh 30.36 in1028.1 mb 0.00 in0.0 mm 0.00 in0.0 mm 0.00 in0.0 mm
04:08 AM 40.4°F4.7°C 34.1°F1.2°C 78% 11.0 mph NNW17.7 kmh NNW 11.0 mph17.7 kmh 30.37 in1028.4 mb 0.00 in0.0 mm 0.00 in0.0 mm 0.00 in0.0 mm
04:10 AM 40.4°F4.7°C 34.1°F1.2°C 78% 2.0 mph N3.2 kmh N 11.0 mph17.7 kmh 30.37 in1028.4 mb 0.00 in0.0 mm 0.00 in0.0 mm 0.00 in0.0 mm
04:12 AM 40.4°F4.7°C 34.1°F1.2°C 78% 4.0 mph N6.4 kmh N 11.0 mph17.7 kmh 30.36 in1028.1 mb 0.00 in0.0 mm 0.00 in0.0 mm 0.00 in0.0 mm
04:14 AM 40.4°F4.7°C 34.1°F1.2°C 78% 4.0 mph NNW6.4 kmh NNW 11.0 mph17.7 kmh 30.36 in1028.1 mb 0.00 in0.0 mm 0.00 in0.0 mm 0.00 in0.0 mm
04:16 AM 40.4°F4.7°C 34.1°F1.2°C 78% 5.0 mph N8.0 kmh N 11.0 mph17.7 kmh 30.35 in1027.8 mb 0.00 in0.0 mm 0.00 in0.0 mm 0.00 in0.0 mm
04:18 AM 40.3°F4.6°C 34.0°F1.1°C 78% 3.0 mph N4.8 kmh N 11.0 mph17.7 kmh 30.35 in1027.8 mb 0.00 in0.0 mm 0.00 in0.0 mm 0.00 in0.0 mm
04:20 AM 40.3°F4.6°C 34.0°F1.1°C 78% 3.0 mph N4.8 kmh N 11.0 mph17.7 kmh 30.35 in1027.8 mb 0.00 in0.0 mm 0.00 in0.0 mm 0.00 in0.0 mm
04:22 AM 40.3°F4.6°C 34.0°F1.1°C 78% 6.0 mph NNE9.7 kmh NNE 11.0 mph17.7 kmh 30.35 in1027.8 mb 0.00 in0.0 mm 0.00 in0.0 mm 0.00 in0.0 mm
04:24 AM 40.3°F4.6°C 34.0°F1.1°C 78% 5.0 mph NNW8.0 kmh NNW 11.0 mph17.7 kmh 30.35 in1027.8 mb 0.00 in0.0 mm 0.00 in0.0 mm 0.00 in0.0 mm
04:26 AM 40.3°F4.6°C 34.0°F1.1°C 78% 8.0 mph N12.9 kmh N 11.0 mph17.7 kmh 30.35 in1027.8 mb 0.00 in0.0 mm 0.00 in0.0 mm 0.00 in0.0 mm
04:28 AM 40.3°F4.6°C 34.0°F1.1°C 78% 2.0 mph NE3.2 kmh NE 11.0 mph17.7 kmh 30.35 in1027.8 mb 0.00 in0.0 mm 0.00 in0.0 mm 0.00 in0.0 mm
04:30 AM 40.2°F4.6°C 33.9°F1.1°C 78% 2.0 mph N3.2 kmh N 11.0 mph17.7 kmh 30.35 in1027.8 mb 0.00 in0.0 mm 0.00 in0.0 mm 0.00 in0.0 mm
04:32 AM 40.2°F4.6°C 33.9°F1.1°C 78% 6.0 mph NNE9.7 kmh NNE 6.0 mph9.7 kmh 30.36 in1028.1 mb 0.00 in0.0 mm 0.00 in0.0 mm 0.00 in0.0 mm
04:34 AM 40.2°F4.6°C 33.9°F1.1°C 78% 2.0 mph N3.2 kmh N 13.0 mph20.9 kmh 30.35 in1027.8 mb 0.00 in0.0 mm 0.00 in0.0 mm 0.00 in0.0 mm
04:36 AM 40.2°F4.6°C 33.9°F1.1°C 78% 2.0 mph N3.2 kmh N 13.0 mph20.9 kmh 30.35 in1027.8 mb 0.00 in0.0 mm 0.00 in0.0 mm 0.00 in0.0 mm
04:38 AM 40.2°F4.6°C 33.9°F1.1°C 78% 6.0 mph NE9.7 kmh NE 13.0 mph20.9 kmh 30.36 in1028.1 mb 0.00 in0.0 mm 0.00 in0.0 mm 0.00 in0.0 mm
04:40 AM 40.2°F4.6°C 33.9°F1.1°C 78% 1.0 mph N1.6 kmh N 13.0 mph20.9 kmh 30.35 in1027.8 mb 0.00 in0.0 mm 0.00 in0.0 mm 0.00 in0.0 mm
04:42 AM 40.2°F4.6°C 33.9°F1.1°C 78% 9.0 mph NNW14.5 kmh NNW 13.0 mph20.9 kmh 30.35 in1027.8 mb 0.00 in0.0 mm 0.00 in0.0 mm 0.00 in0.0 mm
04:44 AM 40.2°F4.6°C 33.9°F1.1°C 78% 3.0 mph N4.8 kmh N 13.0 mph20.9 kmh 30.35 in1027.8 mb 0.00 in0.0 mm 0.00 in0.0 mm 0.00 in0.0 mm
04:46 AM 40.2°F4.6°C 34.2°F1.2°C 79% 2.0 mph NNW3.2 kmh NNW 13.0 mph20.9 kmh 30.35 in1027.8 mb 0.00 in0.0 mm 0.00 in0.0 mm 0.00 in0.0 mm
04:48 AM 40.2°F4.6°C 34.2°F1.2°C 79% 3.0 mph NNW4.8 kmh NNW 13.0 mph20.9 kmh 30.35 in1027.8 mb 0.00 in0.0 mm 0.00 in0.0 mm 0.00 in0.0 mm
04:50 AM 40.1°F4.5°C 34.1°F1.2°C 79% 3.0 mph N4.8 kmh N 13.0 mph20.9 kmh 30.36 in1028.1 mb 0.00 in0.0 mm 0.00 in0.0 mm 0.00 in0.0 mm
04:52 AM 40.2°F4.6°C 34.2°F1.2°C 79% 4.0 mph N6.4 kmh N 13.0 mph20.9 kmh 30.36 in1028.1 mb 0.00 in0.0 mm 0.00 in0.0 mm 0.00 in0.0 mm
04:54 AM 40.1°F4.5°C 34.1°F1.2°C 79% 3.0 mph NNW4.8 kmh NNW 13.0 mph20.9 kmh 30.36 in1028.1 mb 0.00 in0.0 mm 0.00 in0.0 mm 0.00 in0.0 mm
04:56 AM 40.1°F4.5°C 33.8°F1.0°C 78% 8.0 mph N12.9 kmh N 13.0 mph20.9 kmh 30.36 in1028.1 mb 0.00 in0.0 mm 0.00 in0.0 mm 0.00 in0.0 mm
04:58 AM 40.1°F4.5°C 33.8°F1.0°C 78% 4.0 mph NNE6.4 kmh NNE 13.0 mph20.9 kmh 30.36 in1028.1 mb 0.00 in0.0 mm 0.00 in0.0 mm 0.00 in0.0 mm
05:00 AM 40.0°F4.4°C 33.7°F0.9°C 78% 3.0 mph N4.8 kmh N 13.0 mph20.9 kmh 30.36 in1028.1 mb 0.00 in0.0 mm 0.00 in0.0 mm 0.00 in0.0 mm
05:02 AM 40.0°F4.4°C 33.7°F0.9°C 78% 9.0 mph NNW14.5 kmh NNW 9.0 mph14.5 kmh 30.36 in1028.1 mb 0.00 in0.0 mm 0.00 in0.0 mm 0.00 in0.0 mm
05:04 AM 40.0°F4.4°C 33.7°F0.9°C 78% 11.0 mph NW17.7 kmh NW 11.0 mph17.7 kmh 30.36 in1028.1 mb 0.00 in0.0 mm 0.00 in0.0 mm 0.00 in0.0 mm
05:06 AM 40.0°F4.4°C 33.7°F0.9°C 78% 4.0 mph N6.4 kmh N 11.0 mph17.7 kmh 30.37 in1028.4 mb 0.00 in0.0 mm 0.00 in0.0 mm 0.00 in0.0 mm
05:08 AM 40.0°F4.4°C 33.7°F0.9°C 78% 2.0 mph N3.2 kmh N 11.0 mph17.7 kmh 30.37 in1028.4 mb 0.00 in0.0 mm 0.00 in0.0 mm 0.00 in0.0 mm
05:10 AM 40.0°F4.4°C 33.7°F0.9°C 78% 4.0 mph NW6.4 kmh NW 11.0 mph17.7 kmh 30.37 in1028.4 mb 0.00 in0.0 mm 0.00 in0.0 mm 0.00 in0.0 mm
05:12 AM 40.0°F4.4°C 33.7°F0.9°C 78% 8.0 mph NNW12.9 kmh NNW 11.0 mph17.7 kmh 30.37 in1028.4 mb 0.00 in0.0 mm 0.00 in0.0 mm 0.00 in0.0 mm
05:14 AM 40.0°F4.4°C 33.7°F0.9°C 78% 2.0 mph NNW3.2 kmh NNW 11.0 mph17.7 kmh 30.37 in1028.4 mb 0.00 in0.0 mm 0.00 in0.0 mm 0.00 in0.0 mm
05:16 AM 40.0°F4.4°C 33.7°F0.9°C 78% 6.0 mph NNW9.7 kmh NNW 11.0 mph17.7 kmh 30.37 in1028.4 mb 0.00 in0.0 mm 0.00 in0.0 mm 0.00 in0.0 mm
05:18 AM 40.0°F4.4°C 33.7°F0.9°C 78% 5.0 mph NW8.0 kmh NW 11.0 mph17.7 kmh 30.37 in1028.4 mb 0.00 in0.0 mm 0.00 in0.0 mm 0.00 in0.0 mm
05:20 AM 39.9°F4.4°C 33.6°F0.9°C 78% 5.0 mph N8.0 kmh N 11.0 mph17.7 kmh 30.37 in1028.4 mb 0.00 in0.0 mm 0.00 in0.0 mm 0.00 in0.0 mm
05:22 AM 40.0°F4.4°C 33.7°F0.9°C 78% 6.0 mph NNW9.7 kmh NNW 11.0 mph17.7 kmh 30.37 in1028.4 mb 0.00 in0.0 mm 0.00 in0.0 mm 0.00 in0.0 mm
05:24 AM 39.9°F4.4°C 33.6°F0.9°C 78% 8.0 mph N12.9 kmh N 11.0 mph17.7 kmh 30.37 in1028.4 mb 0.00 in0.0 mm 0.00 in0.0 mm 0.00 in0.0 mm
05:26 AM 39.9°F4.4°C 33.9°F1.1°C 79% 8.0 mph N12.9 kmh N 11.0 mph17.7 kmh 30.37 in1028.4 mb 0.00 in0.0 mm 0.00 in0.0 mm 0.00 in0.0 mm
05:28 AM 39.9°F4.4°C 33.9°F1.1°C 79% 8.0 mph NNW12.9 kmh NNW 11.0 mph17.7 kmh 30.37 in1028.4 mb 0.00 in0.0 mm 0.00 in0.0 mm 0.00 in0.0 mm
05:30 AM 39.9°F4.4°C 33.9°F1.1°C 79% 4.0 mph N6.4 kmh N 12.0 mph19.3 kmh 30.37 in1028.4 mb 0.00 in0.0 mm 0.00 in0.0 mm 0.00 in0.0 mm
05:32 AM 39.8°F4.3°C 33.8°F1.0°C 79% 5.0 mph N8.0 kmh N 9.0 mph14.5 kmh 30.37 in1028.4 mb 0.00 in0.0 mm 0.00 in0.0 mm 0.00 in0.0 mm
05:34 AM 39.8°F4.3°C 33.8°F1.0°C 79% 2.0 mph NNW3.2 kmh NNW 9.0 mph14.5 kmh 30.37 in1028.4 mb 0.00 in0.0 mm 0.00 in0.0 mm 0.00 in0.0 mm
05:36 AM 39.8°F4.3°C 33.8°F1.0°C 79% 2.0 mph N3.2 kmh N 9.0 mph14.5 kmh 30.37 in1028.4 mb 0.00 in0.0 mm 0.00 in0.0 mm 0.00 in0.0 mm
05:38 AM 39.8°F4.3°C 33.8°F1.0°C 79% 1.0 mph N1.6 kmh N 9.0 mph14.5 kmh 30.37 in1028.4 mb 0.00 in0.0 mm 0.00 in0.0 mm 0.00 in0.0 mm
05:40 AM 39.9°F4.4°C 33.9°F1.1°C 79% 6.0 mph NNW9.7 kmh NNW 9.0 mph14.5 kmh 30.37 in1028.4 mb 0.00 in0.0 mm 0.00 in0.0 mm 0.00 in0.0 mm
05:42 AM 39.8°F4.3°C 33.8°F1.0°C 79% 3.0 mph N4.8 kmh N 9.0 mph14.5 kmh 30.38 in1028.8 mb 0.00 in0.0 mm 0.00 in0.0 mm 0.00 in0.0 mm
05:44 AM 39.8°F4.3°C 33.8°F1.0°C 79% 1.0 mph N1.6 kmh N 9.0 mph14.5 kmh 30.38 in1028.8 mb 0.00 in0.0 mm 0.00 in0.0 mm 0.00 in0.0 mm
05:46 AM 39.9°F4.4°C 33.9°F1.1°C 79% 4.0 mph NNW6.4 kmh NNW 9.0 mph14.5 kmh 30.38 in1028.8 mb 0.00 in0.0 mm 0.00 in0.0 mm 0.00 in0.0 mm
05:48 AM 39.8°F4.3°C 33.8°F1.0°C 79% 2.0 mph NNE3.2 kmh NNE 9.0 mph14.5 kmh 30.38 in1028.8 mb 0.00 in0.0 mm 0.00 in0.0 mm 0.00 in0.0 mm
05:50 AM 39.8°F4.3°C 33.8°F1.0°C 79% 6.0 mph NNW9.7 kmh NNW 10.0 mph16.1 kmh 30.38 in1028.8 mb 0.00 in0.0 mm 0.00 in0.0 mm 0.00 in0.0 mm
05:52 AM 39.8°F4.3°C 33.8°F1.0°C 79% 2.0 mph N3.2 kmh N 10.0 mph16.1 kmh 30.38 in1028.8 mb 0.00 in0.0 mm 0.00 in0.0 mm 0.00 in0.0 mm
05:54 AM 39.7°F4.3°C 34.1°F1.2°C 80% 2.0 mph N3.2 kmh N 10.0 mph16.1 kmh 30.38 in1028.8 mb 0.00 in0.0 mm 0.00 in0.0 mm 0.00 in0.0 mm
05:56 AM 39.8°F4.3°C 34.1°F1.2°C 80% 4.0 mph NNW6.4 kmh NNW 10.0 mph16.1 kmh 30.37 in1028.4 mb 0.00 in0.0 mm 0.00 in0.0 mm 0.00 in0.0 mm
05:58 AM 39.7°F4.3°C 34.1°F1.2°C 80% 4.0 mph NNE6.4 kmh NNE 10.0 mph16.1 kmh 30.37 in1028.4 mb 0.00 in0.0 mm 0.00 in0.0 mm 0.00 in0.0 mm
06:00 AM 39.7°F4.3°C 34.1°F1.2°C 80% 9.0 mph N14.5 kmh N 10.0 mph16.1 kmh 30.38 in1028.8 mb 0.00 in0.0 mm 0.00 in0.0 mm 0.00 in0.0 mm
06:02 AM 39.8°F4.3°C 34.1°F1.2°C 80% 4.0 mph N6.4 kmh N 5.0 mph8.0 kmh 30.38 in1028.8 mb 0.00 in0.0 mm 0.00 in0.0 mm 0.00 in0.0 mm
06:04 AM 39.7°F4.3°C 34.1°F1.2°C 80% 1.0 mph N1.6 kmh N 11.0 mph17.7 kmh 30.38 in1028.8 mb 0.00 in0.0 mm 0.00 in0.0 mm 0.00 in0.0 mm
06:06 AM 39.7°F4.3°C 34.1°F1.2°C 80% 5.0 mph NNE8.0 kmh NNE 11.0 mph17.7 kmh 30.38 in1028.8 mb 0.00 in0.0 mm 0.00 in0.0 mm 0.00 in0.0 mm
06:08 AM 39.7°F4.3°C 34.1°F1.2°C 80% 7.0 mph NNE11.3 kmh NNE 11.0 mph17.7 kmh 30.38 in1028.8 mb 0.00 in0.0 mm 0.00 in0.0 mm 0.00 in0.0 mm
06:10 AM 39.6°F4.2°C 34.0°F1.1°C 80% 4.0 mph NW6.4 kmh NW 11.0 mph17.7 kmh 30.39 in1029.1 mb 0.00 in0.0 mm 0.00 in0.0 mm 0.00 in0.0 mm
06:12 AM 39.6°F4.2°C 34.0°F1.1°C 80% 9.0 mph NNW14.5 kmh NNW 11.0 mph17.7 kmh 30.39 in1029.1 mb 0.00 in0.0 mm 0.00 in0.0 mm 0.00 in0.0 mm
06:14 AM 39.6°F4.2°C 34.3°F1.3°C 81% 4.0 mph N6.4 kmh N 11.0 mph17.7 kmh 30.39 in1029.1 mb 0.00 in0.0 mm 0.00 in0.0 mm 0.00 in0.0 mm
06:16 AM 39.5°F4.2°C 34.2°F1.2°C 81% 3.0 mph NNE4.8 kmh NNE 11.0 mph17.7 kmh 30.39 in1029.1 mb 0.00 in0.0 mm 0.00 in0.0 mm 0.00 in0.0 mm
06:18 AM 39.4°F4.1°C 34.1°F1.2°C 81% 5.0 mph NNW8.0 kmh NNW 12.0 mph19.3 kmh 30.39 in1029.1 mb 0.00 in0.0 mm 0.00 in0.0 mm 0.00 in0.0 mm
06:20 AM 39.4°F4.1°C 34.1°F1.2°C 81% 1.0 mph N1.6 kmh N 12.0 mph19.3 kmh 30.39 in1029.1 mb 0.00 in0.0 mm 0.00 in0.0 mm 0.00 in0.0 mm
06:22 AM 39.4°F4.1°C 34.1°F1.2°C 81% 1.0 mph N1.6 kmh N 12.0 mph19.3 kmh 30.39 in1029.1 mb 0.00 in0.0 mm 0.00 in0.0 mm 0.00 in0.0 mm
06:24 AM 39.4°F4.1°C 34.1°F1.2°C 81% 1.0 mph NW1.6 kmh NW 12.0 mph19.3 kmh 30.39 in1029.1 mb 0.00 in0.0 mm 0.00 in0.0 mm 0.00 in0.0 mm
06:26 AM 39.4°F4.1°C 34.1°F1.2°C 81% 4.0 mph NNW6.4 kmh NNW 12.0 mph19.3 kmh 30.39 in1029.1 mb 0.00 in0.0 mm 0.00 in0.0 mm 0.00 in0.0 mm
06:28 AM 39.4°F4.1°C 34.1°F1.2°C 81% 3.0 mph NNW4.8 kmh NNW 12.0 mph19.3 kmh 30.38 in1028.8 mb 0.00 in0.0 mm 0.00 in0.0 mm 0.00 in0.0 mm
06:30 AM 39.4°F4.1°C 34.1°F1.2°C 81% 5.0 mph NW8.0 kmh NW 12.0 mph19.3 kmh 30.38 in1028.8 mb 0.00 in0.0 mm 0.00 in0.0 mm 0.00 in0.0 mm
06:32 AM 39.3°F4.1°C 34.0°F1.1°C 81% 2.0 mph N3.2 kmh N 2.0 mph3.2 kmh 30.38 in1028.8 mb 0.00 in0.0 mm 0.00 in0.0 mm 0.00 in0.0 mm
06:34 AM 39.4°F4.1°C 34.1°F1.2°C 81% 2.0 mph N3.2 kmh N 6.0 mph9.7 kmh 30.38 in1028.8 mb 0.00 in0.0 mm 0.00 in0.0 mm 0.00 in0.0 mm
06:36 AM 39.3°F4.1°C 34.0°F1.1°C 81% 6.0 mph NNW9.7 kmh NNW 9.0 mph14.5 kmh 30.39 in1029.1 mb 0.00 in0.0 mm 0.00 in0.0 mm 0.00 in0.0 mm
06:38 AM 39.2°F4.0°C 33.9°F1.1°C 81% 3.0 mph NNW4.8 kmh NNW 10.0 mph16.1 kmh 30.39 in1029.1 mb 0.00 in0.0 mm 0.00 in0.0 mm 0.00 in0.0 mm
06:40 AM 39.2°F4.0°C 33.9°F1.1°C 81% 5.0 mph N8.0 kmh N 10.0 mph16.1 kmh 30.39 in1029.1 mb 0.00 in0.0 mm 0.00 in0.0 mm 0.00 in0.0 mm
06:42 AM 39.2°F4.0°C 33.9°F1.1°C 81% 4.0 mph N6.4 kmh N 10.0 mph16.1 kmh 30.39 in1029.1 mb 0.00 in0.0 mm 0.00 in0.0 mm 0.00 in0.0 mm
06:44 AM 39.2°F4.0°C 33.9°F1.1°C 81% 2.0 mph NNE3.2 kmh NNE 10.0 mph16.1 kmh 30.39 in1029.1 mb 0.00 in0.0 mm 0.00 in0.0 mm 0.00 in0.0 mm
06:46 AM 39.1°F3.9°C 33.8°F1.0°C 81% 9.0 mph N14.5 kmh N 10.0 mph16.1 kmh 30.39 in1029.1 mb 0.00 in0.0 mm 0.00 in0.0 mm 0.00 in0.0 mm
06:48 AM 39.1°F3.9°C 33.8°F1.0°C 81% 6.0 mph NNW9.7 kmh NNW 11.0 mph17.7 kmh 30.39 in1029.1 mb 0.00 in0.0 mm 0.00 in0.0 mm 0.00 in0.0 mm
06:50 AM 39.1°F3.9°C 33.8°F1.0°C 81% 6.0 mph NNW9.7 kmh NNW 11.0 mph17.7 kmh 30.39 in1029.1 mb 0.00 in0.0 mm 0.00 in0.0 mm 0.00 in0.0 mm
06:52 AM 39.0°F3.9°C 34.0°F1.1°C 82% 2.0 mph WNW3.2 kmh WNW 11.0 mph17.7 kmh 30.39 in1029.1 mb 0.00 in0.0 mm 0.00 in0.0 mm 0.00 in0.0 mm
06:54 AM 39.0°F3.9°C 34.0°F1.1°C 82% 4.0 mph NW6.4 kmh NW 11.0 mph17.7 kmh 30.39 in1029.1 mb 0.00 in0.0 mm 0.00 in0.0 mm 0.00 in0.0 mm
06:56 AM 39.0°F3.9°C 33.7°F0.9°C 81% 6.0 mph N9.7 kmh N 11.0 mph17.7 kmh 30.39 in1029.1 mb 0.00 in0.0 mm 0.00 in0.0 mm 0.00 in0.0 mm
06:58 AM 39.0°F3.9°C 33.7°F0.9°C 81% 4.0 mph NNW6.4 kmh NNW 11.0 mph17.7 kmh 30.40 in1029.5 mb 0.00 in0.0 mm 0.00 in0.0 mm 0.00 in0.0 mm
07:00 AM 39.0°F3.9°C 33.7°F0.9°C 81% 5.0 mph N8.0 kmh N 11.0 mph17.7 kmh 30.40 in1029.5 mb 0.00 in0.0 mm 0.00 in0.0 mm 0.00 in0.0 mm
07:02 AM 39.0°F3.9°C 33.7°F0.9°C 81% 3.0 mph NNW4.8 kmh NNW 4.0 mph6.4 kmh 30.40 in1029.5 mb 0.00 in0.0 mm 0.00 in0.0 mm 0.00 in0.0 mm
07:04 AM 39.0°F3.9°C 33.7°F0.9°C 81% 4.0 mph NNW6.4 kmh NNW 8.0 mph12.9 kmh 30.40 in1029.5 mb 0.00 in0.0 mm 0.00 in0.0 mm 0.00 in0.0 mm
07:06 AM 39.0°F3.9°C 33.7°F0.9°C 81% 8.0 mph NW12.9 kmh NW 8.0 mph12.9 kmh 30.40 in1029.5 mb 0.00 in0.0 mm 0.00 in0.0 mm 0.00 in0.0 mm
07:08 AM 39.0°F3.9°C 33.7°F0.9°C 81% 5.0 mph NNW8.0 kmh NNW 8.0 mph12.9 kmh 30.40 in1029.5 mb 0.00 in0.0 mm 0.00 in0.0 mm 0.00 in0.0 mm
07:10 AM 39.0°F3.9°C 33.7°F0.9°C 81% 4.0 mph N6.4 kmh N 8.0 mph12.9 kmh 30.40 in1029.5 mb 0.00 in0.0 mm 0.00 in0.0 mm 0.00 in0.0 mm
07:12 AM 39.0°F3.9°C 33.7°F0.9°C 81% 1.0 mph NNW1.6 kmh NNW 8.0 mph12.9 kmh 30.40 in1029.5 mb 0.00 in0.0 mm 0.00 in0.0 mm 0.00 in0.0 mm
07:14 AM 39.1°F3.9°C 33.8°F1.0°C 81% 3.0 mph N4.8 kmh N 8.0 mph12.9 kmh 30.40 in1029.5 mb 0.00 in0.0 mm 0.00 in0.0 mm 0.00 in0.0 mm
07:16 AM 39.1°F3.9°C 33.8°F1.0°C 81% 3.0 mph NW4.8 kmh NW 8.0 mph12.9 kmh 30.40 in1029.5 mb 0.00 in0.0 mm 0.00 in0.0 mm 0.00 in0.0 mm
07:18 AM 39.1°F3.9°C 33.8°F1.0°C 81% 5.0 mph N8.0 kmh N 8.0 mph12.9 kmh 30.40 in1029.5 mb 0.00 in0.0 mm 0.00 in0.0 mm 0.00 in0.0 mm
07:20 AM 39.1°F3.9°C 33.8°F1.0°C 81% 2.0 mph N3.2 kmh N 9.0 mph14.5 kmh 30.40 in1029.5 mb 0.00 in0.0 mm 0.00 in0.0 mm 0.00 in0.0 mm
07:22 AM 39.1°F3.9°C 33.8°F1.0°C 81% 3.0 mph N4.8 kmh N 9.0 mph14.5 kmh 30.40 in1029.5 mb 0.00 in0.0 mm 0.00 in0.0 mm 0.00 in0.0 mm
07:24 AM 39.1°F3.9°C 33.8°F1.0°C 81% 3.0 mph NW4.8 kmh NW 9.0 mph14.5 kmh 30.40 in1029.5 mb 0.00 in0.0 mm 0.00 in0.0 mm 0.00 in0.0 mm
07:26 AM 39.2°F4.0°C 33.9°F1.1°C 81% 2.0 mph N3.2 kmh N 9.0 mph14.5 kmh 30.40 in1029.5 mb 0.00 in0.0 mm 0.00 in0.0 mm 0.00 in0.0 mm
07:28 AM 39.2°F4.0°C 33.9°F1.1°C 81% 6.0 mph NNW9.7 kmh NNW 9.0 mph14.5 kmh 30.40 in1029.5 mb 0.00 in0.0 mm 0.00 in0.0 mm 0.00 in0.0 mm
07:30 AM 39.2°F4.0°C 34.2°F1.2°C 82% 8.0 mph NW12.9 kmh NW 10.0 mph16.1 kmh 30.41 in1029.8 mb 0.00 in0.0 mm 0.00 in0.0 mm 0.00 in0.0 mm
07:32 AM 39.2°F4.0°C 34.2°F1.2°C 82% 2.0 mph N3.2 kmh N 2.0 mph3.2 kmh 30.40 in1029.5 mb 0.00 in0.0 mm 0.00 in0.0 mm 0.00 in0.0 mm
07:34 AM 39.2°F4.0°C 34.2°F1.2°C 82% 6.0 mph N9.7 kmh N 8.0 mph12.9 kmh 30.40 in1029.5 mb 0.00 in0.0 mm 0.00 in0.0 mm 0.00 in0.0 mm
07:36 AM 39.2°F4.0°C 34.2°F1.2°C 82% 3.0 mph N4.8 kmh N 8.0 mph12.9 kmh 30.40 in1029.5 mb 0.00 in0.0 mm 0.00 in0.0 mm 0.00 in0.0 mm
07:38 AM 39.2°F4.0°C 34.2°F1.2°C 82% 4.0 mph NW6.4 kmh NW 8.0 mph12.9 kmh 30.40 in1029.5 mb 0.00 in0.0 mm 0.00 in0.0 mm 0.00 in0.0 mm
07:40 AM 39.2°F4.0°C 34.2°F1.2°C 82% Calm Calm 8.0 mph12.9 kmh 30.40 in1029.5 mb 0.00 in0.0 mm 0.00 in0.0 mm 0.00 in0.0 mm
07:42 AM 39.2°F4.0°C 34.2°F1.2°C 82% 4.0 mph N6.4 kmh N 8.0 mph12.9 kmh 30.41 in1029.8 mb 0.00 in0.0 mm 0.00 in0.0 mm 0.00 in0.0 mm
07:44 AM 39.3°F4.1°C 34.3°F1.3°C 82% 1.0 mph NNW1.6 kmh NNW 8.0 mph12.9 kmh 30.40 in1029.5 mb 0.00 in0.0 mm 0.00 in0.0 mm 0.00 in0.0 mm
07:46 AM 39.3°F4.1°C 34.3°F1.3°C 82% 1.0 mph NE1.6 kmh NE 8.0 mph12.9 kmh 30.40 in1029.5 mb 0.00 in0.0 mm 0.00 in0.0 mm 0.00 in0.0 mm
07:48 AM 39.3°F4.1°C 34.0°F1.1°C 81% 3.0 mph N4.8 kmh N 8.0 mph12.9 kmh 30.40 in1029.5 mb 0.00 in0.0 mm 0.00 in0.0 mm 0.00 in0.0 mm
07:50 AM 39.4°F4.1°C 34.1°F1.2°C 81% 2.0 mph N3.2 kmh N 8.0 mph12.9 kmh 30.40 in1029.5 mb 0.00 in0.0 mm 0.00 in0.0 mm 0.00 in0.0 mm
07:52 AM 39.4°F4.1°C 34.4°F1.3°C 82% 1.0 mph N1.6 kmh N 8.0 mph12.9 kmh 30.40 in1029.5 mb 0.00 in0.0 mm 0.00 in0.0 mm 0.00 in0.0 mm
07:54 AM 39.5°F4.2°C 34.5°F1.4°C 82% Calm Calm 8.0 mph12.9 kmh 30.40 in1029.5 mb 0.00 in0.0 mm 0.00 in0.0 mm 0.00 in0.0 mm
07:56 AM 39.6°F4.2°C 34.3°F1.3°C 81% 5.0 mph NNW8.0 kmh NNW 8.0 mph12.9 kmh 30.40 in1029.5 mb 0.00 in0.0 mm 0.00 in0.0 mm 0.00 in0.0 mm
07:58 AM 39.5°F4.2°C 34.2°F1.2°C 81% 5.0 mph NNW8.0 kmh NNW 8.0 mph12.9 kmh 30.40 in1029.5 mb 0.00 in0.0 mm 0.00 in0.0 mm 0.00 in0.0 mm
08:00 AM 39.6°F4.2°C 34.3°F1.3°C 81% 2.0 mph N3.2 kmh N 8.0 mph12.9 kmh 30.40 in1029.5 mb 0.00 in0.0 mm 0.00 in0.0 mm 0.00 in0.0 mm
08:02 AM 39.6°F4.2°C 34.3°F1.3°C 81% 3.0 mph NNE4.8 kmh NNE 9.0 mph14.5 kmh 30.40 in1029.5 mb 0.00 in0.0 mm 0.00 in0.0 mm 0.00 in0.0 mm
08:04 AM 39.6°F4.2°C 34.3°F1.3°C 81% 4.0 mph NNW6.4 kmh NNW 9.0 mph14.5 kmh 30.40 in1029.5 mb 0.00 in0.0 mm 0.00 in0.0 mm 0.00 in0.0 mm
08:06 AM 39.6°F4.2°C 34.0°F1.1°C 80% 3.0 mph NNE4.8 kmh NNE 10.0 mph16.1 kmh 30.41 in1029.8 mb 0.00 in0.0 mm 0.00 in0.0 mm 0.00 in0.0 mm
08:08 AM 39.6°F4.2°C 34.3°F1.3°C 81% 2.0 mph NW3.2 kmh NW 10.0 mph16.1 kmh 30.41 in1029.8 mb 0.00 in0.0 mm 0.00 in0.0 mm 0.00 in0.0 mm
08:10 AM 39.6°F4.2°C 34.0°F1.1°C 80% 2.0 mph NNW3.2 kmh NNW 10.0 mph16.1 kmh 30.41 in1029.8 mb 0.00 in0.0 mm 0.00 in0.0 mm 0.00 in0.0 mm
08:12 AM 39.7°F4.3°C 34.1°F1.2°C 80% 6.0 mph N9.7 kmh N 10.0 mph16.1 kmh 30.41 in1029.8 mb 0.00 in0.0 mm 0.00 in0.0 mm 0.00 in0.0 mm
08:14 AM 39.8°F4.3°C 34.1°F1.2°C 80% 3.0 mph NNW4.8 kmh NNW 10.0 mph16.1 kmh 30.41 in1029.8 mb 0.00 in0.0 mm 0.00 in0.0 mm 0.00 in0.0 mm
08:16 AM 39.8°F4.3°C 34.1°F1.2°C 80% 4.0 mph N6.4 kmh N 10.0 mph16.1 kmh 30.41 in1029.8 mb 0.00 in0.0 mm 0.00 in0.0 mm 0.00 in0.0 mm
08:18 AM 39.9°F4.4°C 34.2°F1.2°C 80% 2.0 mph NE3.2 kmh NE 10.0 mph16.1 kmh 30.40 in1029.5 mb 0.00 in0.0 mm 0.00 in0.0 mm 0.00 in0.0 mm
08:20 AM 39.9°F4.4°C 34.2°F1.2°C 80% 5.0 mph N8.0 kmh N 10.0 mph16.1 kmh 30.40 in1029.5 mb 0.00 in0.0 mm 0.00 in0.0 mm 0.00 in0.0 mm
08:22 AM 39.9°F4.4°C 34.2°F1.2°C 80% 2.0 mph N3.2 kmh N 10.0 mph16.1 kmh 30.41 in1029.8 mb 0.00 in0.0 mm 0.00 in0.0 mm 0.00 in0.0 mm
08:24 AM 39.9°F4.4°C 34.2°F1.2°C 80% 2.0 mph N3.2 kmh N 10.0 mph16.1 kmh 30.41 in1029.8 mb 0.00 in0.0 mm 0.00 in0.0 mm 0.00 in0.0 mm
08:26 AM 39.9°F4.4°C 34.2°F1.2°C 80% 4.0 mph NNW6.4 kmh NNW 10.0 mph16.1 kmh 30.40 in1029.5 mb 0.00 in0.0 mm 0.00 in0.0 mm 0.00 in0.0 mm
08:28 AM 40.0°F4.4°C 34.3°F1.3°C 80% 1.0 mph N1.6 kmh N 10.0 mph16.1 kmh 30.41 in1029.8 mb 0.00 in0.0 mm 0.00 in0.0 mm 0.00 in0.0 mm
08:30 AM 40.0°F4.4°C 34.0°F1.1°C 79% 4.0 mph NNW6.4 kmh NNW 10.0 mph16.1 kmh 30.41 in1029.8 mb 0.00 in0.0 mm 0.00 in0.0 mm 0.00 in0.0 mm
08:32 AM 40.0°F4.4°C 34.0°F1.1°C 79% 2.0 mph NNW3.2 kmh NNW 4.0 mph6.4 kmh 30.41 in1029.8 mb 0.00 in0.0 mm 0.00 in0.0 mm 0.00 in0.0 mm
08:34 AM 40.1°F4.5°C 34.4°F1.3°C 80% 2.0 mph NW3.2 kmh NW 5.0 mph8.0 kmh 30.41 in1029.8 mb 0.00 in0.0 mm 0.00 in0.0 mm 0.00 in0.0 mm
08:36 AM 40.1°F4.5°C 34.1°F1.2°C 79% 4.0 mph N6.4 kmh N 10.0 mph16.1 kmh 30.40 in1029.5 mb 0.00 in0.0 mm 0.00 in0.0 mm 0.00 in0.0 mm
08:38 AM 40.1°F4.5°C 34.1°F1.2°C 79% 6.0 mph N9.7 kmh N 10.0 mph16.1 kmh 30.41 in1029.8 mb 0.00 in0.0 mm 0.00 in0.0 mm 0.00 in0.0 mm
08:40 AM 40.2°F4.6°C 34.2°F1.2°C 79% 3.0 mph N4.8 kmh N 10.0 mph16.1 kmh 30.41 in1029.8 mb 0.00 in0.0 mm 0.00 in0.0 mm 0.00 in0.0 mm
08:42 AM 40.2°F4.6°C 34.5°F1.4°C 80% 2.0 mph NE3.2 kmh NE 10.0 mph16.1 kmh 30.41 in1029.8 mb 0.00 in0.0 mm 0.00 in0.0 mm 0.00 in0.0 mm
08:44 AM 40.3°F4.6°C 34.6°F1.4°C 80% 1.0 mph NE1.6 kmh NE 10.0 mph16.1 kmh 30.41 in1029.8 mb 0.00 in0.0 mm 0.00 in0.0 mm 0.00 in0.0 mm
08:46 AM 40.4°F4.7°C 34.7°F1.5°C 80% 2.0 mph N3.2 kmh N 10.0 mph16.1 kmh 30.41 in1029.8 mb 0.00 in0.0 mm 0.00 in0.0 mm 0.00 in0.0 mm
08:48 AM 40.5°F4.7°C 34.8°F1.6°C 80% 5.0 mph NW8.0 kmh NW 10.0 mph16.1 kmh 30.41 in1029.8 mb 0.00 in0.0 mm 0.00 in0.0 mm 0.00 in0.0 mm
08:50 AM 40.5°F4.7°C 34.5°F1.4°C 79% 6.0 mph NE9.7 kmh NE 10.0 mph16.1 kmh 30.40 in1029.5 mb 0.00 in0.0 mm 0.00 in0.0 mm 0.00 in0.0 mm
08:52 AM 40.6°F4.8°C 34.6°F1.4°C 79% 1.0 mph N1.6 kmh N 10.0 mph16.1 kmh 30.40 in1029.5 mb 0.00 in0.0 mm 0.00 in0.0 mm 0.00 in0.0 mm
08:54 AM 40.7°F4.8°C 34.7°F1.5°C 79% 3.0 mph N4.8 kmh N 10.0 mph16.1 kmh 30.40 in1029.5 mb 0.00 in0.0 mm 0.00 in0.0 mm 0.00 in0.0 mm
08:56 AM 40.7°F4.8°C 34.7°F1.5°C 79% 5.0 mph NNW8.0 kmh NNW 10.0 mph16.1 kmh 30.40 in1029.5 mb 0.00 in0.0 mm 0.00 in0.0 mm 0.00 in0.0 mm
08:58 AM 40.7°F4.8°C 34.7°F1.5°C 79% 5.0 mph NNE8.0 kmh NNE 10.0 mph16.1 kmh 30.40 in1029.5 mb 0.00 in0.0 mm 0.00 in0.0 mm 0.00 in0.0 mm
09:00 AM 40.6°F4.8°C 34.6°F1.4°C 79% 1.0 mph N1.6 kmh N 10.0 mph16.1 kmh 30.40 in1029.5 mb 0.00 in0.0 mm 0.00 in0.0 mm 0.00 in0.0 mm
09:02 AM 40.6°F4.8°C 34.6°F1.4°C 79% 2.0 mph N3.2 kmh N 5.0 mph8.0 kmh 30.40 in1029.5 mb 0.00 in0.0 mm 0.00 in0.0 mm 0.00 in0.0 mm
09:04 AM 40.7°F4.8°C 34.7°F1.5°C 79% 2.0 mph NW3.2 kmh NW 7.0 mph11.3 kmh 30.40 in1029.5 mb 0.00 in0.0 mm 0.00 in0.0 mm 0.00 in0.0 mm
09:06 AM 40.7°F4.8°C 34.7°F1.5°C 79% 2.0 mph NNW3.2 kmh NNW 7.0 mph11.3 kmh 30.41 in1029.8 mb 0.00 in0.0 mm 0.00 in0.0 mm 0.00 in0.0 mm
09:08 AM 40.8°F4.9°C 34.8°F1.6°C 79% 6.0 mph N9.7 kmh N 9.0 mph14.5 kmh 30.41 in1029.8 mb 0.00 in0.0 mm 0.00 in0.0 mm 0.00 in0.0 mm
09:10 AM 40.8°F4.9°C 34.8°F1.6°C 79% 2.0 mph NNW3.2 kmh NNW 9.0 mph14.5 kmh 30.41 in1029.8 mb 0.00 in0.0 mm 0.00 in0.0 mm 0.00 in0.0 mm
09:12 AM 40.8°F4.9°C 34.8°F1.6°C 79% 1.0 mph NNW1.6 kmh NNW 9.0 mph14.5 kmh 30.41 in1029.8 mb 0.00 in0.0 mm 0.00 in0.0 mm 0.00 in0.0 mm
09:14 AM 41.0°F5.0°C 35.0°F1.7°C 79% 2.0 mph N3.2 kmh N 9.0 mph14.5 kmh 30.41 in1029.8 mb 0.00 in0.0 mm 0.00 in0.0 mm 0.00 in0.0 mm
09:15 AM 41.1°F5.1°C 35.1°F1.7°C 79% 1.0 mph N1.6 kmh N 9.0 mph14.5 kmh 30.41 in1029.8 mb 0.00 in0.0 mm 0.00 in0.0 mm 0.00 in0.0 mm
09:18 AM 41.3°F5.2°C 35.3°F1.8°C 79% 4.0 mph N6.4 kmh N 9.0 mph14.5 kmh 30.41 in1029.8 mb 0.00 in0.0 mm 0.00 in0.0 mm 0.00 in0.0 mm
09:20 AM 41.5°F5.3°C 35.5°F1.9°C 79% 4.0 mph NNE6.4 kmh NNE 9.0 mph14.5 kmh 30.41 in1029.8 mb 0.00 in0.0 mm 0.00 in0.0 mm 0.00 in0.0 mm
09:22 AM 41.6°F5.3°C 35.6°F2.0°C 79% 3.0 mph NNW4.8 kmh NNW 9.0 mph14.5 kmh 30.41 in1029.8 mb 0.00 in0.0 mm 0.00 in0.0 mm 0.00 in0.0 mm
09:24 AM 41.7°F5.4°C 35.4°F1.9°C 78% 3.0 mph N4.8 kmh N 9.0 mph14.5 kmh 30.41 in1029.8 mb 0.00 in0.0 mm 0.00 in0.0 mm 0.00 in0.0 mm
09:26 AM 41.8°F5.4°C 35.8°F2.1°C 79% 4.0 mph N6.4 kmh N 9.0 mph14.5 kmh 30.41 in1029.8 mb 0.00 in0.0 mm 0.00 in0.0 mm 0.00 in0.0 mm
09:28 AM 41.9°F5.5°C 35.6°F2.0°C 78% 8.0 mph NNE12.9 kmh NNE 9.0 mph14.5 kmh 30.41 in1029.8 mb 0.00 in0.0 mm 0.00 in0.0 mm 0.00 in0.0 mm
09:30 AM 41.9°F5.5°C 35.6°F2.0°C 78% 2.0 mph N3.2 kmh N 10.0 mph16.1 kmh 30.41 in1029.8 mb 0.00 in0.0 mm 0.00 in0.0 mm 0.00 in0.0 mm
09:32 AM 41.9°F5.5°C 35.6°F2.0°C 78% 2.0 mph N3.2 kmh N 10.0 mph16.1 kmh 30.41 in1029.8 mb 0.00 in0.0 mm 0.00 in0.0 mm 0.00 in0.0 mm
09:34 AM 41.9°F5.5°C 35.6°F2.0°C 78% 5.0 mph N8.0 kmh N 5.0 mph8.0 kmh 30.41 in1029.8 mb 0.00 in0.0 mm 0.00 in0.0 mm 0.00 in0.0 mm
09:36 AM 42.0°F5.6°C 35.7°F2.1°C 78% 2.0 mph NNW3.2 kmh NNW 6.0 mph9.7 kmh 30.41 in1029.8 mb 0.00 in0.0 mm 0.00 in0.0 mm 0.00 in0.0 mm
09:38 AM 42.0°F5.6°C 35.7°F2.1°C 78% 4.0 mph NNW6.4 kmh NNW 6.0 mph9.7 kmh 30.41 in1029.8 mb 0.00 in0.0 mm 0.00 in0.0 mm 0.00 in0.0 mm
09:40 AM 42.1°F5.6°C 35.8°F2.1°C 78% 1.0 mph N1.6 kmh N 6.0 mph9.7 kmh 30.41 in1029.8 mb 0.00 in0.0 mm 0.00 in0.0 mm 0.00 in0.0 mm
09:42 AM 42.1°F5.6°C 35.8°F2.1°C 78% 9.0 mph NNE14.5 kmh NNE 11.0 mph17.7 kmh 30.41 in1029.8 mb 0.00 in0.0 mm 0.00 in0.0 mm 0.00 in0.0 mm
09:43 AM 42.2°F5.7°C 35.8°F2.1°C 78% 3.0 mph NE4.8 kmh NE 11.0 mph17.7 kmh 30.41 in1029.8 mb 0.00 in0.0 mm 0.00 in0.0 mm 0.00 in0.0 mm
09:46 AM 42.3°F5.7°C 35.9°F2.2°C 78% 6.0 mph NW9.7 kmh NW 11.0 mph17.7 kmh 30.41 in1029.8 mb 0.00 in0.0 mm 0.00 in0.0 mm 0.00 in0.0 mm
09:48 AM 42.3°F5.7°C 35.6°F2.0°C 77% 1.0 mph N1.6 kmh N 11.0 mph17.7 kmh 30.41 in1029.8 mb 0.00 in0.0 mm 0.00 in0.0 mm 0.00 in0.0 mm
09:50 AM 42.4°F5.8°C 36.0°F2.2°C 78% 2.0 mph NE3.2 kmh NE 11.0 mph17.7 kmh 30.41 in1029.8 mb 0.00 in0.0 mm 0.00 in0.0 mm 0.00 in0.0 mm
09:52 AM 42.5°F5.8°C 35.8°F2.1°C 77% 1.0 mph NE1.6 kmh NE 11.0 mph17.7 kmh 30.41 in1029.8 mb 0.00 in0.0 mm 0.00 in0.0 mm 0.00 in0.0 mm
09:54 AM 42.7°F5.9°C 36.0°F2.2°C 77% 5.0 mph N8.0 kmh N 11.0 mph17.7 kmh 30.41 in1029.8 mb 0.00 in0.0 mm 0.00 in0.0 mm 0.00 in0.0 mm
09:56 AM 42.7°F5.9°C 36.0°F2.2°C 77% 4.0 mph NNW6.4 kmh NNW 11.0 mph17.7 kmh 30.41 in1029.8 mb 0.00 in0.0 mm 0.00 in0.0 mm 0.00 in0.0 mm
09:58 AM 42.7°F5.9°C 35.7°F2.1°C 76% 4.0 mph NW6.4 kmh NW 11.0 mph17.7 kmh 30.41 in1029.8 mb 0.00 in0.0 mm 0.00 in0.0 mm 0.00 in0.0 mm
10:00 AM 42.6°F5.9°C 35.6°F2.0°C 76% 2.0 mph N3.2 kmh N 11.0 mph17.7 kmh 30.41 in1029.8 mb 0.00 in0.0 mm 0.00 in0.0 mm 0.00 in0.0 mm
10:02 AM 42.7°F5.9°C 36.0°F2.2°C 77% 3.0 mph NNW4.8 kmh NNW 4.0 mph6.4 kmh 30.41 in1029.8 mb 0.00 in0.0 mm 0.00 in0.0 mm 0.00 in0.0 mm
10:04 AM 42.7°F5.9°C 35.7°F2.1°C 76% 8.0 mph NW12.9 kmh NW 10.0 mph16.1 kmh 30.41 in1029.8 mb 0.00 in0.0 mm 0.00 in0.0 mm 0.00 in0.0 mm
10:06 AM 42.7°F5.9°C 36.0°F2.2°C 77% 3.0 mph NNW4.8 kmh NNW 10.0 mph16.1 kmh 30.41 in1029.8 mb 0.00 in0.0 mm 0.00 in0.0 mm 0.00 in0.0 mm
10:08 AM 42.8°F6.0°C 36.1°F2.3°C 77% 4.0 mph N6.4 kmh N 10.0 mph16.1 kmh 30.41 in1029.8 mb 0.00 in0.0 mm 0.00 in0.0 mm 0.00 in0.0 mm
10:10 AM 43.0°F6.1°C 36.3°F2.4°C 77% 2.0 mph NNE3.2 kmh NNE 10.0 mph16.1 kmh 30.41 in1029.8 mb 0.00 in0.0 mm 0.00 in0.0 mm 0.00 in0.0 mm
10:12 AM 43.1°F6.2°C 36.4°F2.4°C 77% 1.0 mph NW1.6 kmh NW 10.0 mph16.1 kmh 30.41 in1029.8 mb 0.00 in0.0 mm 0.00 in0.0 mm 0.00 in0.0 mm
10:14 AM 43.3°F6.3°C 36.3°F2.4°C 76% 6.0 mph NW9.7 kmh NW 10.0 mph16.1 kmh 30.41 in1029.8 mb 0.00 in0.0 mm 0.00 in0.0 mm 0.00 in0.0 mm
10:16 AM 43.4°F6.3°C 36.4°F2.4°C 76% 5.0 mph NNW8.0 kmh NNW 10.0 mph16.1 kmh 30.41 in1029.8 mb 0.00 in0.0 mm 0.00 in0.0 mm 0.00 in0.0 mm
10:18 AM 43.5°F6.4°C 36.5°F2.5°C 76% 3.0 mph NNW4.8 kmh NNW 10.0 mph16.1 kmh 30.40 in1029.5 mb 0.00 in0.0 mm 0.00 in0.0 mm 0.00 in0.0 mm
10:20 AM 43.5°F6.4°C 36.1°F2.3°C 75% 8.0 mph NW12.9 kmh NW 10.0 mph16.1 kmh 30.40 in1029.5 mb 0.00 in0.0 mm 0.00 in0.0 mm 0.00 in0.0 mm
10:22 AM 43.6°F6.4°C 36.2°F2.3°C 75% 7.0 mph NNE11.3 kmh NNE 10.0 mph16.1 kmh 30.40 in1029.5 mb 0.00 in0.0 mm 0.00 in0.0 mm 0.00 in0.0 mm
10:24 AM 43.7°F6.5°C 36.6°F2.6°C 76% 1.0 mph NE1.6 kmh NE 10.0 mph16.1 kmh 30.40 in1029.5 mb 0.00 in0.0 mm 0.00 in0.0 mm 0.00 in0.0 mm
10:26 AM 44.0°F6.7°C 36.9°F2.7°C 76% 2.0 mph NE3.2 kmh NE 10.0 mph16.1 kmh 30.40 in1029.5 mb 0.00 in0.0 mm 0.00 in0.0 mm 0.00 in0.0 mm
10:28 AM 44.2°F6.8°C 36.5°F2.5°C 74% 2.0 mph N3.2 kmh N 10.0 mph16.1 kmh 30.40 in1029.5 mb 0.00 in0.0 mm 0.00 in0.0 mm 0.00 in0.0 mm
10:30 AM 44.3°F6.8°C 36.6°F2.6°C 74% 4.0 mph NE6.4 kmh NE 10.0 mph16.1 kmh 30.40 in1029.5 mb 0.00 in0.0 mm 0.00 in0.0 mm 0.00 in0.0 mm
10:32 AM 44.4°F6.9°C 36.7°F2.6°C 74% 8.0 mph NE12.9 kmh NE 8.0 mph12.9 kmh 30.40 in1029.5 mb 0.00 in0.0 mm 0.00 in0.0 mm 0.00 in0.0 mm
10:34 AM 44.5°F6.9°C 36.4°F2.4°C 73% 3.0 mph NE4.8 kmh NE 11.0 mph17.7 kmh 30.40 in1029.5 mb 0.00 in0.0 mm 0.00 in0.0 mm 0.00 in0.0 mm
10:36 AM 44.6°F7.0°C 36.8°F2.7°C 74% 4.0 mph NE6.4 kmh NE 11.0 mph17.7 kmh 30.40 in1029.5 mb 0.00 in0.0 mm 0.00 in0.0 mm 0.00 in0.0 mm
10:38 AM 44.6°F7.0°C 36.5°F2.5°C 73% 6.0 mph NNE9.7 kmh NNE 11.0 mph17.7 kmh 30.40 in1029.5 mb 0.00 in0.0 mm 0.00 in0.0 mm 0.00 in0.0 mm
10:39 AM 44.7°F7.1°C 36.2°F2.3°C 72% 3.0 mph NE4.8 kmh NE 11.0 mph17.7 kmh 30.40 in1029.5 mb 0.00 in0.0 mm 0.00 in0.0 mm 0.00 in0.0 mm
10:42 AM 44.7°F7.1°C 36.6°F2.6°C 73% 3.0 mph NE4.8 kmh NE 11.0 mph17.7 kmh 30.40 in1029.5 mb 0.00 in0.0 mm 0.00 in0.0 mm 0.00 in0.0 mm
10:44 AM 44.7°F7.1°C 36.6°F2.6°C 73% Calm Calm 11.0 mph17.7 kmh 30.40 in1029.5 mb 0.00 in0.0 mm 0.00 in0.0 mm 0.00 in0.0 mm
10:46 AM 44.9°F7.2°C 36.8°F2.7°C 73% 4.0 mph NE6.4 kmh NE 11.0 mph17.7 kmh 30.40 in1029.5 mb 0.00 in0.0 mm 0.00 in0.0 mm 0.00 in0.0 mm
10:48 AM 45.0°F7.2°C 36.5°F2.5°C 72% 3.0 mph N4.8 kmh N 11.0 mph17.7 kmh 30.41 in1029.8 mb 0.00 in0.0 mm 0.00 in0.0 mm 0.00 in0.0 mm
10:50 AM 45.2°F7.3°C 36.4°F2.4°C 71% 3.0 mph N4.8 kmh N 11.0 mph17.7 kmh 30.41 in1029.8 mb 0.00 in0.0 mm 0.00 in0.0 mm 0.00 in0.0 mm
10:52 AM 45.2°F7.3°C 36.7°F2.6°C 72% 3.0 mph NNE4.8 kmh NNE 11.0 mph17.7 kmh 30.41 in1029.8 mb 0.00 in0.0 mm 0.00 in0.0 mm 0.00 in0.0 mm
10:54 AM 45.3°F7.4°C 36.8°F2.7°C 72% 3.0 mph N4.8 kmh N 11.0 mph17.7 kmh 30.41 in1029.8 mb 0.00 in0.0 mm 0.00 in0.0 mm 0.00 in0.0 mm
10:56 AM 45.6°F7.6°C 37.1°F2.8°C 72% 5.0 mph N8.0 kmh N 11.0 mph17.7 kmh 30.40 in1029.5 mb 0.00 in0.0 mm 0.00 in0.0 mm 0.00 in0.0 mm
10:58 AM 45.7°F7.6°C 36.9°F2.7°C 71% 3.0 mph N4.8 kmh N 11.0 mph17.7 kmh 30.40 in1029.5 mb 0.00 in0.0 mm 0.00 in0.0 mm 0.00 in0.0 mm
11:00 AM 45.9°F7.7°C 37.0°F2.8°C 71% Calm Calm 11.0 mph17.7 kmh 30.40 in1029.5 mb 0.00 in0.0 mm 0.00 in0.0 mm 0.00 in0.0 mm
11:02 AM 46.1°F7.8°C 37.6°F3.1°C 72% 7.0 mph E11.3 kmh E 7.0 mph11.3 kmh 30.40 in1029.5 mb 0.00 in0.0 mm 0.00 in0.0 mm 0.00 in0.0 mm
11:04 AM 46.4°F8.0°C 37.5°F3.1°C 71% 2.0 mph NNW3.2 kmh NNW 7.0 mph11.3 kmh 30.40 in1029.5 mb 0.00 in0.0 mm 0.00 in0.0 mm 0.00 in0.0 mm
11:06 AM 46.5°F8.1°C 37.3°F2.9°C 70% 3.0 mph NNE4.8 kmh NNE 9.0 mph14.5 kmh 30.40 in1029.5 mb 0.00 in0.0 mm 0.00 in0.0 mm 0.00 in0.0 mm
11:08 AM 46.6°F8.1°C 37.0°F2.8°C 69% 3.0 mph N4.8 kmh N 9.0 mph14.5 kmh 30.40 in1029.5 mb 0.00 in0.0 mm 0.00 in0.0 mm 0.00 in0.0 mm
11:10 AM 46.6°F8.1°C 37.0°F2.8°C 69% 3.0 mph NE4.8 kmh NE 9.0 mph14.5 kmh 30.40 in1029.5 mb 0.00 in0.0 mm 0.00 in0.0 mm 0.00 in0.0 mm
11:12 AM 46.5°F8.1°C 36.9°F2.7°C 69% 9.0 mph NW14.5 kmh NW 9.0 mph14.5 kmh 30.40 in1029.5 mb 0.00 in0.0 mm 0.00 in0.0 mm 0.00 in0.0 mm
11:14 AM 46.5°F8.1°C 37.3°F2.9°C 70% 3.0 mph N4.8 kmh N 11.0 mph17.7 kmh 30.40 in1029.5 mb 0.00 in0.0 mm 0.00 in0.0 mm 0.00 in0.0 mm
11:16 AM 46.6°F8.1°C 37.0°F2.8°C 69% 2.0 mph N3.2 kmh N 11.0 mph17.7 kmh 30.40 in1029.5 mb 0.00 in0.0 mm 0.00 in0.0 mm 0.00 in0.0 mm
11:18 AM 46.8°F8.2°C 37.6°F3.1°C 70% 4.0 mph NW6.4 kmh NW 11.0 mph17.7 kmh 30.40 in1029.5 mb 0.00 in0.0 mm 0.00 in0.0 mm 0.00 in0.0 mm
11:20 AM 46.7°F8.2°C 37.1°F2.8°C 69% 5.0 mph ENE8.0 kmh ENE 11.0 mph17.7 kmh 30.40 in1029.5 mb 0.00 in0.0 mm 0.00 in0.0 mm 0.00 in0.0 mm
11:22 AM 46.9°F8.3°C 37.6°F3.1°C 70% 2.0 mph ENE3.2 kmh ENE 11.0 mph17.7 kmh 30.40 in1029.5 mb 0.00 in0.0 mm 0.00 in0.0 mm 0.00 in0.0 mm
11:24 AM 47.1°F8.4°C 37.8°F3.2°C 70% 3.0 mph NE4.8 kmh NE 11.0 mph17.7 kmh 30.40 in1029.5 mb 0.00 in0.0 mm 0.00 in0.0 mm 0.00 in0.0 mm
11:26 AM 47.3°F8.5°C 37.7°F3.2°C 69% 3.0 mph ESE4.8 kmh ESE 11.0 mph17.7 kmh 30.40 in1029.5 mb 0.00 in0.0 mm 0.00 in0.0 mm 0.00 in0.0 mm
11:28 AM 47.4°F8.6°C 37.4°F3.0°C 68% 3.0 mph NNE4.8 kmh NNE 11.0 mph17.7 kmh 30.40 in1029.5 mb 0.00 in0.0 mm 0.00 in0.0 mm 0.00 in0.0 mm
11:30 AM 47.5°F8.6°C 37.5°F3.1°C 68% 1.0 mph NE1.6 kmh NE 11.0 mph17.7 kmh 30.39 in1029.1 mb 0.00 in0.0 mm 0.00 in0.0 mm 0.00 in0.0 mm
11:32 AM 47.6°F8.7°C 37.6°F3.1°C 68% 3.0 mph NNE4.8 kmh NNE 3.0 mph4.8 kmh 30.39 in1029.1 mb 0.00 in0.0 mm 0.00 in0.0 mm 0.00 in0.0 mm
11:34 AM 47.6°F8.7°C 37.6°F3.1°C 68% 2.0 mph NW3.2 kmh NW 5.0 mph8.0 kmh 30.39 in1029.1 mb 0.00 in0.0 mm 0.00 in0.0 mm 0.00 in0.0 mm
11:36 AM 47.9°F8.8°C 37.9°F3.3°C 68% 3.0 mph N4.8 kmh N 5.0 mph8.0 kmh 30.39 in1029.1 mb 0.00 in0.0 mm 0.00 in0.0 mm 0.00 in0.0 mm
11:38 AM 47.9°F8.8°C 37.5°F3.1°C 67% 5.0 mph NW8.0 kmh NW 8.0 mph12.9 kmh 30.39 in1029.1 mb 0.00 in0.0 mm 0.00 in0.0 mm 0.00 in0.0 mm
11:40 AM 47.8°F8.8°C 37.0°F2.8°C 66% 3.0 mph NW4.8 kmh NW 8.0 mph12.9 kmh 30.38 in1028.8 mb 0.00 in0.0 mm 0.00 in0.0 mm 0.00 in0.0 mm
11:42 AM 47.6°F8.7°C 37.2°F2.9°C 67% 6.0 mph NNW9.7 kmh NNW 8.0 mph12.9 kmh 30.38 in1028.8 mb 0.00 in0.0 mm 0.00 in0.0 mm 0.00 in0.0 mm
11:44 AM 47.4°F8.6°C 37.0°F2.8°C 67% 2.0 mph NNE3.2 kmh NNE 8.0 mph12.9 kmh 30.38 in1028.8 mb 0.00 in0.0 mm 0.00 in0.0 mm 0.00 in0.0 mm
11:46 AM 47.5°F8.6°C 37.5°F3.1°C 68% 5.0 mph NW8.0 kmh NW 9.0 mph14.5 kmh 30.38 in1028.8 mb 0.00 in0.0 mm 0.00 in0.0 mm 0.00 in0.0 mm
11:48 AM 47.6°F8.7°C 37.2°F2.9°C 67% 5.0 mph NW8.0 kmh NW 9.0 mph14.5 kmh 30.38 in1028.8 mb 0.00 in0.0 mm 0.00 in0.0 mm 0.00 in0.0 mm
11:50 AM 47.6°F8.7°C 37.2°F2.9°C 67% 2.0 mph NE3.2 kmh NE 9.0 mph14.5 kmh 30.38 in1028.8 mb 0.00 in0.0 mm 0.00 in0.0 mm 0.00 in0.0 mm
11:52 AM 47.6°F8.7°C 37.2°F2.9°C 67% 7.0 mph NW11.3 kmh NW 9.0 mph14.5 kmh 30.38 in1028.8 mb 0.00 in0.0 mm 0.00 in0.0 mm 0.00 in0.0 mm
11:54 AM 47.6°F8.7°C 37.2°F2.9°C 67% 4.0 mph NNW6.4 kmh NNW 11.0 mph17.7 kmh 30.38 in1028.8 mb 0.00 in0.0 mm 0.00 in0.0 mm 0.00 in0.0 mm
11:56 AM 47.7°F8.7°C 37.3°F2.9°C 67% 6.0 mph NNW9.7 kmh NNW 11.0 mph17.7 kmh 30.37 in1028.4 mb 0.00 in0.0 mm 0.00 in0.0 mm 0.00 in0.0 mm
11:58 AM 47.6°F8.7°C 37.2°F2.9°C 67% 1.0 mph NW1.6 kmh NW 11.0 mph17.7 kmh 30.37 in1028.4 mb 0.00 in0.0 mm 0.00 in0.0 mm 0.00 in0.0 mm
12:00 PM 47.7°F8.7°C 38.0°F3.3°C 69% 2.0 mph NE3.2 kmh NE 11.0 mph17.7 kmh 30.37 in1028.4 mb 0.00 in0.0 mm 0.00 in0.0 mm 0.00 in0.0 mm
12:02 PM 47.9°F8.8°C 37.9°F3.3°C 68% 1.0 mph N1.6 kmh N 1.0 mph1.6 kmh 30.37 in1028.4 mb 0.00 in0.0 mm 0.00 in0.0 mm 0.00 in0.0 mm
12:04 PM 48.2°F9.0°C 38.5°F3.6°C 69% 2.0 mph N3.2 kmh N 6.0 mph9.7 kmh 30.36 in1028.1 mb 0.00 in0.0 mm 0.00 in0.0 mm 0.00 in0.0 mm
12:06 PM 48.5°F9.2°C 38.1°F3.4°C 67% 3.0 mph NE4.8 kmh NE 6.0 mph9.7 kmh 30.36 in1028.1 mb 0.00 in0.0 mm 0.00 in0.0 mm 0.00 in0.0 mm
12:08 PM 48.8°F9.3°C 38.3°F3.5°C 67% 3.0 mph N4.8 kmh N 8.0 mph12.9 kmh 30.36 in1028.1 mb 0.00 in0.0 mm 0.00 in0.0 mm 0.00 in0.0 mm
12:10 PM 48.9°F9.4°C 38.1°F3.4°C 66% 5.0 mph N8.0 kmh N 8.0 mph12.9 kmh 30.36 in1028.1 mb 0.00 in0.0 mm 0.00 in0.0 mm 0.00 in0.0 mm
12:12 PM 49.2°F9.6°C 38.0°F3.3°C 65% 3.0 mph ENE4.8 kmh ENE 8.0 mph12.9 kmh 30.36 in1028.1 mb 0.00 in0.0 mm 0.00 in0.0 mm 0.00 in0.0 mm
12:14 PM 49.2°F9.6°C 38.0°F3.3°C 65% 2.0 mph NNE3.2 kmh NNE 8.0 mph12.9 kmh 30.36 in1028.1 mb 0.00 in0.0 mm 0.00 in0.0 mm 0.00 in0.0 mm
12:16 PM 49.3°F9.6°C 37.7°F3.2°C 64% 5.0 mph NNW8.0 kmh NNW 8.0 mph12.9 kmh 30.36 in1028.1 mb 0.00 in0.0 mm 0.00 in0.0 mm 0.00 in0.0 mm
12:18 PM 49.2°F9.6°C 38.0°F3.3°C 65% 2.0 mph NW3.2 kmh NW 8.0 mph12.9 kmh 30.35 in1027.8 mb 0.00 in0.0 mm 0.00 in0.0 mm 0.00 in0.0 mm
12:20 PM 49.3°F9.6°C 38.4°F3.6°C 66% 1.0 mph NNE1.6 kmh NNE 8.0 mph12.9 kmh 30.36 in1028.1 mb 0.00 in0.0 mm 0.00 in0.0 mm 0.00 in0.0 mm
12:22 PM 49.5°F9.7°C 38.2°F3.4°C 65% 2.0 mph NW3.2 kmh NW 8.0 mph12.9 kmh 30.35 in1027.8 mb 0.00 in0.0 mm 0.00 in0.0 mm 0.00 in0.0 mm
12:24 PM 49.7°F9.8°C 38.4°F3.6°C 65% 4.0 mph NNW6.4 kmh NNW 8.0 mph12.9 kmh 30.35 in1027.8 mb 0.00 in0.0 mm 0.00 in0.0 mm 0.00 in0.0 mm
12:26 PM 49.6°F9.8°C 37.9°F3.3°C 64% 8.0 mph NNW12.9 kmh NNW 10.0 mph16.1 kmh 30.35 in1027.8 mb 0.00 in0.0 mm 0.00 in0.0 mm 0.00 in0.0 mm
12:28 PM 49.6°F9.8°C 37.9°F3.3°C 64% 5.0 mph NNW8.0 kmh NNW 10.0 mph16.1 kmh 30.35 in1027.8 mb 0.00 in0.0 mm 0.00 in0.0 mm 0.00 in0.0 mm
12:30 PM 49.5°F9.7°C 37.8°F3.2°C 64% 2.0 mph NNW3.2 kmh NNW 10.0 mph16.1 kmh 30.35 in1027.8 mb 0.00 in0.0 mm 0.00 in0.0 mm 0.00 in0.0 mm
12:32 PM 49.5°F9.7°C 38.2°F3.4°C 65% 5.0 mph NNE8.0 kmh NNE 5.0 mph8.0 kmh 30.35 in1027.8 mb 0.00 in0.0 mm 0.00 in0.0 mm 0.00 in0.0 mm
12:34 PM 49.6°F9.8°C 38.3°F3.5°C 65% 3.0 mph NNW4.8 kmh NNW 10.0 mph16.1 kmh 30.35 in1027.8 mb 0.00 in0.0 mm 0.00 in0.0 mm 0.00 in0.0 mm
12:36 PM 49.5°F9.7°C 37.8°F3.2°C 64% 2.0 mph WNW3.2 kmh WNW 10.0 mph16.1 kmh 30.35 in1027.8 mb 0.00 in0.0 mm 0.00 in0.0 mm 0.00 in0.0 mm
12:38 PM 49.4°F9.7°C 38.1°F3.4°C 65% 2.0 mph NE3.2 kmh NE 10.0 mph16.1 kmh 30.34 in1027.4 mb 0.00 in0.0 mm 0.00 in0.0 mm 0.00 in0.0 mm
12:40 PM 49.6°F9.8°C 38.3°F3.5°C 65% 3.0 mph NNW4.8 kmh NNW 10.0 mph16.1 kmh 30.35 in1027.8 mb 0.00 in0.0 mm 0.00 in0.0 mm 0.00 in0.0 mm
12:42 PM 49.6°F9.8°C 37.9°F3.3°C 64% 1.0 mph NNW1.6 kmh NNW 10.0 mph16.1 kmh 30.34 in1027.4 mb 0.00 in0.0 mm 0.00 in0.0 mm 0.00 in0.0 mm
12:44 PM 49.6°F9.8°C 38.3°F3.5°C 65% 1.0 mph NE1.6 kmh NE 10.0 mph16.1 kmh 30.34 in1027.4 mb 0.00 in0.0 mm 0.00 in0.0 mm 0.00 in0.0 mm
12:46 PM 49.8°F9.9°C 38.5°F3.6°C 65% 4.0 mph NW6.4 kmh NW 10.0 mph16.1 kmh 30.34 in1027.4 mb 0.00 in0.0 mm 0.00 in0.0 mm 0.00 in0.0 mm
12:48 PM 49.9°F9.9°C 38.2°F3.4°C 64% 1.0 mph NNW1.6 kmh NNW 11.0 mph17.7 kmh 30.34 in1027.4 mb 0.00 in0.0 mm 0.00 in0.0 mm 0.00 in0.0 mm
12:50 PM 50.1°F10.1°C 38.8°F3.8°C 65% 3.0 mph N4.8 kmh N 11.0 mph17.7 kmh 30.33 in1027.1 mb 0.00 in0.0 mm 0.00 in0.0 mm 0.00 in0.0 mm
12:52 PM 50.4°F10.2°C 39.1°F3.9°C 65% 4.0 mph E6.4 kmh E 11.0 mph17.7 kmh 30.33 in1027.1 mb 0.00 in0.0 mm 0.00 in0.0 mm 0.00 in0.0 mm
12:54 PM 50.6°F10.3°C 38.5°F3.6°C 63% 7.0 mph E11.3 kmh E 11.0 mph17.7 kmh 30.33 in1027.1 mb 0.00 in0.0 mm 0.00 in0.0 mm 0.00 in0.0 mm
12:56 PM 50.6°F10.3°C 38.5°F3.6°C 63% 4.0 mph NE6.4 kmh NE 11.0 mph17.7 kmh 30.33 in1027.1 mb 0.00 in0.0 mm 0.00 in0.0 mm 0.00 in0.0 mm
12:57 PM 50.5°F10.3°C 38.4°F3.6°C 63% 9.0 mph NE14.5 kmh NE 11.0 mph17.7 kmh 30.33 in1027.1 mb 0.00 in0.0 mm 0.00 in0.0 mm 0.00 in0.0 mm
01:00 PM 50.5°F10.3°C 38.4°F3.6°C 63% 3.0 mph NNE4.8 kmh NNE 11.0 mph17.7 kmh 30.33 in1027.1 mb 0.00 in0.0 mm 0.00 in0.0 mm 0.00 in0.0 mm
01:02 PM 50.6°F10.3°C 38.1°F3.4°C 62% 5.0 mph N8.0 kmh N 5.0 mph8.0 kmh 30.33 in1027.1 mb 0.00 in0.0 mm 0.00 in0.0 mm 0.00 in0.0 mm
01:04 PM 50.6°F10.3°C 38.1°F3.4°C 62% Calm Calm 7.0 mph11.3 kmh 30.33 in1027.1 mb 0.00 in0.0 mm 0.00 in0.0 mm 0.00 in0.0 mm
01:06 PM 50.8°F10.4°C 38.3°F3.5°C 62% 4.0 mph NE6.4 kmh NE 7.0 mph11.3 kmh 30.33 in1027.1 mb 0.00 in0.0 mm 0.00 in0.0 mm 0.00 in0.0 mm
01:08 PM 50.9°F10.5°C 38.4°F3.6°C 62% 1.0 mph N1.6 kmh N 7.0 mph11.3 kmh 30.33 in1027.1 mb 0.00 in0.0 mm 0.00 in0.0 mm 0.00 in0.0 mm
01:10 PM 51.0°F10.6°C 38.0°F3.3°C 61% 4.0 mph N6.4 kmh N 7.0 mph11.3 kmh 30.32 in1026.8 mb 0.00 in0.0 mm 0.00 in0.0 mm 0.00 in0.0 mm
01:12 PM 51.1°F10.6°C 38.1°F3.4°C 61% 6.0 mph NNW9.7 kmh NNW 7.0 mph11.3 kmh 30.32 in1026.8 mb 0.00 in0.0 mm 0.00 in0.0 mm 0.00 in0.0 mm
01:14 PM 51.1°F10.6°C 38.1°F3.4°C 61% 5.0 mph NNW8.0 kmh NNW 7.0 mph11.3 kmh 30.32 in1026.8 mb 0.00 in0.0 mm 0.00 in0.0 mm 0.00 in0.0 mm
01:16 PM 50.9°F10.5°C 38.4°F3.6°C 62% 3.0 mph NE4.8 kmh NE 7.0 mph11.3 kmh 30.32 in1026.8 mb 0.00 in0.0 mm 0.00 in0.0 mm 0.00 in0.0 mm
01:18 PM 50.9°F10.5°C 38.4°F3.6°C 62% 6.0 mph NE9.7 kmh NE 10.0 mph16.1 kmh 30.32 in1026.8 mb 0.00 in0.0 mm 0.00 in0.0 mm 0.00 in0.0 mm
01:20 PM 50.7°F10.4°C 38.2°F3.4°C 62% 4.0 mph E6.4 kmh E 10.0 mph16.1 kmh 30.31 in1026.4 mb 0.00 in0.0 mm 0.00 in0.0 mm 0.00 in0.0 mm
01:22 PM 50.6°F10.3°C 38.1°F3.4°C 62% 1.0 mph E1.6 kmh E 10.0 mph16.1 kmh 30.31 in1026.4 mb 0.00 in0.0 mm 0.00 in0.0 mm 0.00 in0.0 mm
01:24 PM 50.6°F10.3°C 38.5°F3.6°C 63% Calm Calm 10.0 mph16.1 kmh 30.31 in1026.4 mb 0.00 in0.0 mm 0.00 in0.0 mm 0.00 in0.0 mm
01:26 PM 50.7°F10.4°C 38.2°F3.4°C 62% 2.0 mph SE3.2 kmh SE 10.0 mph16.1 kmh 30.31 in1026.4 mb 0.00 in0.0 mm 0.00 in0.0 mm 0.00 in0.0 mm
01:28 PM 50.9°F10.5°C 38.8°F3.8°C 63% 2.0 mph NE3.2 kmh NE 10.0 mph16.1 kmh 30.31 in1026.4 mb 0.00 in0.0 mm 0.00 in0.0 mm 0.00 in0.0 mm
01:30 PM 51.1°F10.6°C 38.1°F3.4°C 61% 4.0 mph NNW6.4 kmh NNW 10.0 mph16.1 kmh 30.31 in1026.4 mb 0.00 in0.0 mm 0.00 in0.0 mm 0.00 in0.0 mm
01:32 PM 51.0°F10.6°C 38.0°F3.3°C 61% 3.0 mph NNW4.8 kmh NNW 3.0 mph4.8 kmh 30.31 in1026.4 mb 0.00 in0.0 mm 0.00 in0.0 mm 0.00 in0.0 mm
01:34 PM 51.0°F10.6°C 38.0°F3.3°C 61% 4.0 mph NW6.4 kmh NW 9.0 mph14.5 kmh 30.31 in1026.4 mb 0.00 in0.0 mm 0.00 in0.0 mm 0.00 in0.0 mm
01:36 PM 50.9°F10.5°C 38.4°F3.6°C 62% 3.0 mph NNW4.8 kmh NNW 9.0 mph14.5 kmh 30.31 in1026.4 mb 0.00 in0.0 mm 0.00 in0.0 mm 0.00 in0.0 mm
01:38 PM 51.0°F10.6°C 38.0°F3.3°C 61% 3.0 mph NW4.8 kmh NW 9.0 mph14.5 kmh 30.31 in1026.4 mb 0.00 in0.0 mm 0.00 in0.0 mm 0.00 in0.0 mm
01:40 PM 51.1°F10.6°C 38.6°F3.7°C 62% 1.0 mph N1.6 kmh N 9.0 mph14.5 kmh 30.30 in1026.1 mb 0.00 in0.0 mm 0.00 in0.0 mm 0.00 in0.0 mm
01:42 PM 51.3°F10.7°C 38.3°F3.5°C 61% 1.0 mph ENE1.6 kmh ENE 9.0 mph14.5 kmh 30.30 in1026.1 mb 0.00 in0.0 mm 0.00 in0.0 mm 0.00 in0.0 mm
01:44 PM 51.4°F10.8°C 38.8°F3.8°C 62% Calm Calm 9.0 mph14.5 kmh 30.30 in1026.1 mb 0.00 in0.0 mm 0.00 in0.0 mm 0.00 in0.0 mm
01:46 PM 51.5°F10.8°C 38.1°F3.4°C 60% 2.0 mph NNW3.2 kmh NNW 9.0 mph14.5 kmh 30.30 in1026.1 mb 0.00 in0.0 mm 0.00 in0.0 mm 0.00 in0.0 mm
01:48 PM 51.6°F10.9°C 38.2°F3.4°C 60% 2.0 mph N3.2 kmh N 9.0 mph14.5 kmh 30.30 in1026.1 mb 0.00 in0.0 mm 0.00 in0.0 mm 0.00 in0.0 mm
01:50 PM 51.8°F11.0°C 38.8°F3.8°C 61% 3.0 mph NNW4.8 kmh NNW 9.0 mph14.5 kmh 30.30 in1026.1 mb 0.00 in0.0 mm 0.00 in0.0 mm 0.00 in0.0 mm
01:52 PM 52.0°F11.1°C 38.6°F3.7°C 60% 2.0 mph N3.2 kmh N 9.0 mph14.5 kmh 30.30 in1026.1 mb 0.00 in0.0 mm 0.00 in0.0 mm 0.00 in0.0 mm
01:54 PM 52.2°F11.2°C 38.8°F3.8°C 60% 5.0 mph NW8.0 kmh NW 9.0 mph14.5 kmh 30.30 in1026.1 mb 0.00 in0.0 mm 0.00 in0.0 mm 0.00 in0.0 mm
01:56 PM 52.3°F11.3°C 38.4°F3.6°C 59% 2.0 mph NNW3.2 kmh NNW 9.0 mph14.5 kmh 30.29 in1025.7 mb 0.00 in0.0 mm 0.00 in0.0 mm 0.00 in0.0 mm
01:58 PM 52.4°F11.3°C 38.5°F3.6°C 59% 2.0 mph NW3.2 kmh NW 9.0 mph14.5 kmh 30.29 in1025.7 mb 0.00 in0.0 mm 0.00 in0.0 mm 0.00 in0.0 mm
02:00 PM 52.4°F11.3°C 38.5°F3.6°C 59% 3.0 mph N4.8 kmh N 9.0 mph14.5 kmh 30.29 in1025.7 mb 0.00 in0.0 mm 0.00 in0.0 mm 0.00 in0.0 mm
02:02 PM 52.4°F11.3°C 38.5°F3.6°C 59% 3.0 mph NE4.8 kmh NE 6.0 mph9.7 kmh 30.29 in1025.7 mb 0.00 in0.0 mm 0.00 in0.0 mm 0.00 in0.0 mm
02:04 PM 52.3°F11.3°C 38.4°F3.6°C 59% 2.0 mph ENE3.2 kmh ENE 6.0 mph9.7 kmh 30.29 in1025.7 mb 0.00 in0.0 mm 0.00 in0.0 mm 0.00 in0.0 mm
02:06 PM 52.2°F11.2°C 38.3°F3.5°C 59% 3.0 mph ESE4.8 kmh ESE 8.0 mph12.9 kmh 30.29 in1025.7 mb 0.00 in0.0 mm 0.00 in0.0 mm 0.00 in0.0 mm
02:08 PM 52.2°F11.2°C 38.8°F3.8°C 60% 5.0 mph NE8.0 kmh NE 8.0 mph12.9 kmh 30.29 in1025.7 mb 0.00 in0.0 mm 0.00 in0.0 mm 0.00 in0.0 mm
02:10 PM 52.4°F11.3°C 38.5°F3.6°C 59% 2.0 mph N3.2 kmh N 8.0 mph12.9 kmh 30.29 in1025.7 mb 0.00 in0.0 mm 0.00 in0.0 mm 0.00 in0.0 mm
02:12 PM 52.4°F11.3°C 38.9°F3.8°C 60% 2.0 mph NNW3.2 kmh NNW 8.0 mph12.9 kmh 30.29 in1025.7 mb 0.00 in0.0 mm 0.00 in0.0 mm 0.00 in0.0 mm
02:14 PM 52.5°F11.4°C 39.0°F3.9°C 60% 2.0 mph NNE3.2 kmh NNE 8.0 mph12.9 kmh 30.29 in1025.7 mb 0.00 in0.0 mm 0.00 in0.0 mm 0.00 in0.0 mm
02:16 PM 52.6°F11.4°C 38.7°F3.7°C 59% Calm Calm 8.0 mph12.9 kmh 30.29 in1025.7 mb 0.00 in0.0 mm 0.00 in0.0 mm 0.00 in0.0 mm
02:18 PM 52.8°F11.6°C 39.3°F4.1°C 60% 3.0 mph NW4.8 kmh NW 8.0 mph12.9 kmh 30.29 in1025.7 mb 0.00 in0.0 mm 0.00 in0.0 mm 0.00 in0.0 mm
02:20 PM 52.9°F11.6°C 38.5°F3.6°C 58% 2.0 mph NW3.2 kmh NW 8.0 mph12.9 kmh 30.29 in1025.7 mb 0.00 in0.0 mm 0.00 in0.0 mm 0.00 in0.0 mm
02:22 PM 52.9°F11.6°C 38.5°F3.6°C 58% 1.0 mph WNW1.6 kmh WNW 8.0 mph12.9 kmh 30.30 in1026.1 mb 0.00 in0.0 mm 0.00 in0.0 mm 0.00 in0.0 mm
02:24 PM 53.0°F11.7°C 39.1°F3.9°C 59% 3.0 mph WNW4.8 kmh WNW 8.0 mph12.9 kmh 30.29 in1025.7 mb 0.00 in0.0 mm 0.00 in0.0 mm 0.00 in0.0 mm
02:26 PM 53.1°F11.7°C 38.7°F3.7°C 58% 1.0 mph WNW1.6 kmh WNW 8.0 mph12.9 kmh 30.29 in1025.7 mb 0.00 in0.0 mm 0.00 in0.0 mm 0.00 in0.0 mm
02:28 PM 53.3°F11.8°C 39.4°F4.1°C 59% 2.0 mph N3.2 kmh N 8.0 mph12.9 kmh 30.29 in1025.7 mb 0.00 in0.0 mm 0.00 in0.0 mm 0.00 in0.0 mm
02:30 PM 53.5°F11.9°C 39.1°F3.9°C 58% 1.0 mph NNE1.6 kmh NNE 8.0 mph12.9 kmh 30.29 in1025.7 mb 0.00 in0.0 mm 0.00 in0.0 mm 0.00 in0.0 mm
02:32 PM 53.8°F12.1°C 39.4°F4.1°C 58% 2.0 mph NW3.2 kmh NW 4.0 mph6.4 kmh 30.29 in1025.7 mb 0.00 in0.0 mm 0.00 in0.0 mm 0.00 in0.0 mm
02:34 PM 53.9°F12.2°C 38.6°F3.7°C 56% 5.0 mph NNW8.0 kmh NNW 6.0 mph9.7 kmh 30.29 in1025.7 mb 0.00 in0.0 mm 0.00 in0.0 mm 0.00 in0.0 mm
02:36 PM 53.8°F12.1°C 38.5°F3.6°C 56% 5.0 mph NW8.0 kmh NW 6.0 mph9.7 kmh 30.29 in1025.7 mb 0.00 in0.0 mm 0.00 in0.0 mm 0.00 in0.0 mm
02:38 PM 53.6°F12.0°C 38.8°F3.8°C 57% 8.0 mph NW12.9 kmh NW 8.0 mph12.9 kmh 30.29 in1025.7 mb 0.00 in0.0 mm 0.00 in0.0 mm 0.00 in0.0 mm
02:40 PM 53.4°F11.9°C 38.6°F3.7°C 57% 3.0 mph NW4.8 kmh NW 8.0 mph12.9 kmh 30.29 in1025.7 mb 0.00 in0.0 mm 0.00 in0.0 mm 0.00 in0.0 mm
02:42 PM 53.2°F11.8°C 38.4°F3.6°C 57% 1.0 mph WNW1.6 kmh WNW 8.0 mph12.9 kmh 30.29 in1025.7 mb 0.00 in0.0 mm 0.00 in0.0 mm 0.00 in0.0 mm
02:44 PM 53.2°F11.8°C 38.8°F3.8°C 58% 5.0 mph NNE8.0 kmh NNE 8.0 mph12.9 kmh 30.29 in1025.7 mb 0.00 in0.0 mm 0.00 in0.0 mm 0.00 in0.0 mm
02:46 PM 53.3°F11.8°C 38.9°F3.8°C 58% 3.0 mph NE4.8 kmh NE 8.0 mph12.9 kmh 30.29 in1025.7 mb 0.00 in0.0 mm 0.00 in0.0 mm 0.00 in0.0 mm
02:48 PM 53.3°F11.8°C 38.5°F3.6°C 57% 4.0 mph ENE6.4 kmh ENE 8.0 mph12.9 kmh 30.29 in1025.7 mb 0.00 in0.0 mm 0.00 in0.0 mm 0.00 in0.0 mm
02:50 PM 53.1°F11.7°C 38.3°F3.5°C 57% 4.0 mph NE6.4 kmh NE 8.0 mph12.9 kmh 30.29 in1025.7 mb 0.00 in0.0 mm 0.00 in0.0 mm 0.00 in0.0 mm
02:52 PM 53.1°F11.7°C 38.7°F3.7°C 58% 3.0 mph NW4.8 kmh NW 8.0 mph12.9 kmh 30.29 in1025.7 mb 0.00 in0.0 mm 0.00 in0.0 mm 0.00 in0.0 mm
02:54 PM 53.2°F11.8°C 38.4°F3.6°C 57% 3.0 mph NW4.8 kmh NW 8.0 mph12.9 kmh 30.29 in1025.7 mb 0.00 in0.0 mm 0.00 in0.0 mm 0.00 in0.0 mm
02:56 PM 53.2°F11.8°C 38.4°F3.6°C 57% 8.0 mph NNW12.9 kmh NNW 8.0 mph12.9 kmh 30.29 in1025.7 mb 0.00 in0.0 mm 0.00 in0.0 mm 0.00 in0.0 mm
02:58 PM 53.2°F11.8°C 38.8°F3.8°C 58% 5.0 mph NW8.0 kmh NW 9.0 mph14.5 kmh 30.29 in1025.7 mb 0.00 in0.0 mm 0.00 in0.0 mm 0.00 in0.0 mm
03:00 PM 53.3°F11.8°C 39.4°F4.1°C 59% 3.0 mph NNE4.8 kmh NNE 9.0 mph14.5 kmh 30.29 in1025.7 mb 0.00 in0.0 mm 0.00 in0.0 mm 0.00 in0.0 mm
03:02 PM 53.5°F11.9°C 39.5°F4.2°C 59% 3.0 mph NNE4.8 kmh NNE 3.0 mph4.8 kmh 30.29 in1025.7 mb 0.00 in0.0 mm 0.00 in0.0 mm 0.00 in0.0 mm
03:04 PM 53.7°F12.1°C 39.3°F4.1°C 58% 6.0 mph N9.7 kmh N 6.0 mph9.7 kmh 30.29 in1025.7 mb 0.00 in0.0 mm 0.00 in0.0 mm 0.00 in0.0 mm
03:06 PM 54.0°F12.2°C 39.1°F3.9°C 57% 3.0 mph N4.8 kmh N 6.0 mph9.7 kmh 30.29 in1025.7 mb 0.00 in0.0 mm 0.00 in0.0 mm 0.00 in0.0 mm
03:08 PM 54.2°F12.3°C 38.9°F3.8°C 56% 5.0 mph NW8.0 kmh NW 6.0 mph9.7 kmh 30.29 in1025.7 mb 0.00 in0.0 mm 0.00 in0.0 mm 0.00 in0.0 mm
03:10 PM 54.0°F12.2°C 38.7°F3.7°C 56% 4.0 mph NE6.4 kmh NE 9.0 mph14.5 kmh 30.29 in1025.7 mb 0.00 in0.0 mm 0.00 in0.0 mm 0.00 in0.0 mm
03:12 PM 54.1°F12.3°C 38.8°F3.8°C 56% 2.0 mph NE3.2 kmh NE 9.0 mph14.5 kmh 30.29 in1025.7 mb 0.00 in0.0 mm 0.00 in0.0 mm 0.00 in0.0 mm
03:14 PM 54.1°F12.3°C 38.8°F3.8°C 56% 3.0 mph NE4.8 kmh NE 9.0 mph14.5 kmh 30.28 in1025.4 mb 0.00 in0.0 mm 0.00 in0.0 mm 0.00 in0.0 mm
03:16 PM 54.2°F12.3°C 38.9°F3.8°C 56% 5.0 mph NE8.0 kmh NE 9.0 mph14.5 kmh 30.28 in1025.4 mb 0.00 in0.0 mm 0.00 in0.0 mm 0.00 in0.0 mm
03:18 PM 54.2°F12.3°C 38.9°F3.8°C 56% 5.0 mph NE8.0 kmh NE 9.0 mph14.5 kmh 30.28 in1025.4 mb 0.00 in0.0 mm 0.00 in0.0 mm 0.00 in0.0 mm
03:20 PM 54.0°F12.2°C 38.7°F3.7°C 56% Calm Calm 9.0 mph14.5 kmh 30.28 in1025.4 mb 0.00 in0.0 mm 0.00 in0.0 mm 0.00 in0.0 mm
03:22 PM 54.0°F12.2°C 38.2°F3.4°C 55% 4.0 mph NNW6.4 kmh NNW 9.0 mph14.5 kmh 30.28 in1025.4 mb 0.00 in0.0 mm 0.00 in0.0 mm 0.00 in0.0 mm
03:24 PM 54.2°F12.3°C 38.9°F3.8°C 56% 3.0 mph N4.8 kmh N 9.0 mph14.5 kmh 30.28 in1025.4 mb 0.00 in0.0 mm 0.00 in0.0 mm 0.00 in0.0 mm
03:26 PM 54.2°F12.3°C 38.9°F3.8°C 56% 4.0 mph NNW6.4 kmh NNW 9.0 mph14.5 kmh 30.28 in1025.4 mb 0.00 in0.0 mm 0.00 in0.0 mm 0.00 in0.0 mm
03:28 PM 54.3°F12.4°C 39.0°F3.9°C 56% 5.0 mph NNW8.0 kmh NNW 9.0 mph14.5 kmh 30.28 in1025.4 mb 0.00 in0.0 mm 0.00 in0.0 mm 0.00 in0.0 mm
03:30 PM 54.4°F12.4°C 38.1°F3.4°C 54% Calm Calm 9.0 mph14.5 kmh 30.28 in1025.4 mb 0.00 in0.0 mm 0.00 in0.0 mm 0.00 in0.0 mm
03:32 PM 54.3°F12.4°C 38.5°F3.6°C 55% 4.0 mph NW6.4 kmh NW 5.0 mph8.0 kmh 30.28 in1025.4 mb 0.00 in0.0 mm 0.00 in0.0 mm 0.00 in0.0 mm
03:34 PM 54.4°F12.4°C 38.6°F3.7°C 55% 5.0 mph NW8.0 kmh NW 5.0 mph8.0 kmh 30.28 in1025.4 mb 0.00 in0.0 mm 0.00 in0.0 mm 0.00 in0.0 mm
03:36 PM 54.4°F12.4°C 38.6°F3.7°C 55% 3.0 mph NE4.8 kmh NE 5.0 mph8.0 kmh 30.28 in1025.4 mb 0.00 in0.0 mm 0.00 in0.0 mm 0.00 in0.0 mm
03:38 PM 54.4°F12.4°C 39.1°F3.9°C 56% 1.0 mph NE1.6 kmh NE 5.0 mph8.0 kmh 30.28 in1025.4 mb 0.00 in0.0 mm 0.00 in0.0 mm 0.00 in0.0 mm
03:40 PM 54.4°F12.4°C 38.6°F3.7°C 55% 1.0 mph E1.6 kmh E 7.0 mph11.3 kmh 30.28 in1025.4 mb 0.00 in0.0 mm 0.00 in0.0 mm 0.00 in0.0 mm
03:42 PM 54.4°F12.4°C 39.1°F3.9°C 56% 2.0 mph NE3.2 kmh NE 7.0 mph11.3 kmh 30.28 in1025.4 mb 0.00 in0.0 mm 0.00 in0.0 mm 0.00 in0.0 mm
03:44 PM 54.4°F12.4°C 38.6°F3.7°C 55% 2.0 mph NW3.2 kmh NW 7.0 mph11.3 kmh 30.28 in1025.4 mb 0.00 in0.0 mm 0.00 in0.0 mm 0.00 in0.0 mm
03:46 PM 54.4°F12.4°C 38.6°F3.7°C 55% 3.0 mph NW4.8 kmh NW 7.0 mph11.3 kmh 30.28 in1025.4 mb 0.00 in0.0 mm 0.00 in0.0 mm 0.00 in0.0 mm
03:48 PM 54.3°F12.4°C 38.5°F3.6°C 55% 2.0 mph NW3.2 kmh NW 7.0 mph11.3 kmh 30.28 in1025.4 mb 0.00 in0.0 mm 0.00 in0.0 mm 0.00 in0.0 mm
03:50 PM 54.5°F12.5°C 38.7°F3.7°C 55% 2.0 mph NW3.2 kmh NW 7.0 mph11.3 kmh 30.27 in1025.1 mb 0.00 in0.0 mm 0.00 in0.0 mm 0.00 in0.0 mm
03:52 PM 54.5°F12.5°C 38.2°F3.4°C 54% 1.0 mph NW1.6 kmh NW 7.0 mph11.3 kmh 30.27 in1025.1 mb 0.00 in0.0 mm 0.00 in0.0 mm 0.00 in0.0 mm
03:54 PM 54.5°F12.5°C 38.7°F3.7°C 55% 2.0 mph NW3.2 kmh NW 7.0 mph11.3 kmh 30.27 in1025.1 mb 0.00 in0.0 mm 0.00 in0.0 mm 0.00 in0.0 mm
03:56 PM 54.5°F12.5°C 38.7°F3.7°C 55% 2.0 mph NW3.2 kmh NW 7.0 mph11.3 kmh 30.27 in1025.1 mb 0.00 in0.0 mm 0.00 in0.0 mm 0.00 in0.0 mm
03:58 PM 54.6°F12.6°C 38.8°F3.8°C 55% 2.0 mph NW3.2 kmh NW 7.0 mph11.3 kmh 30.27 in1025.1 mb 0.00 in0.0 mm 0.00 in0.0 mm 0.00 in0.0 mm
04:00 PM 54.6°F12.6°C 38.8°F3.8°C 55% 1.0 mph NW1.6 kmh NW 7.0 mph11.3 kmh 30.27 in1025.1 mb 0.00 in0.0 mm 0.00 in0.0 mm 0.00 in0.0 mm
04:02 PM 54.8°F12.7°C 39.0°F3.9°C 55% Calm Calm -- 30.27 in1025.1 mb 0.00 in0.0 mm 0.00 in0.0 mm 0.00 in0.0 mm
04:04 PM 55.0°F12.8°C 39.2°F4.0°C 55% Calm Calm -- 30.27 in1025.1 mb 0.00 in0.0 mm 0.00 in0.0 mm 0.00 in0.0 mm
04:06 PM 55.2°F12.9°C 39.3°F4.1°C 55% 3.0 mph ENE4.8 kmh ENE 3.0 mph4.8 kmh 30.27 in1025.1 mb 0.00 in0.0 mm 0.00 in0.0 mm 0.00 in0.0 mm
04:08 PM 55.3°F12.9°C 39.0°F3.9°C 54% 2.0 mph ENE3.2 kmh ENE 4.0 mph6.4 kmh 30.27 in1025.1 mb 0.00 in0.0 mm 0.00 in0.0 mm 0.00 in0.0 mm
04:10 PM 55.3°F12.9°C 39.4°F4.1°C 55% 1.0 mph ENE1.6 kmh ENE 4.0 mph6.4 kmh 30.27 in1025.1 mb 0.00 in0.0 mm 0.00 in0.0 mm 0.00 in0.0 mm
04:12 PM 55.2°F12.9°C 38.9°F3.8°C 54% 2.0 mph NE3.2 kmh NE 5.0 mph8.0 kmh 30.27 in1025.1 mb 0.00 in0.0 mm 0.00 in0.0 mm 0.00 in0.0 mm
04:14 PM 55.1°F12.8°C 38.8°F3.8°C 54% 3.0 mph ENE4.8 kmh ENE 5.0 mph8.0 kmh 30.27 in1025.1 mb 0.00 in0.0 mm 0.00 in0.0 mm 0.00 in0.0 mm
04:16 PM 54.8°F12.7°C 38.5°F3.6°C 54% 3.0 mph ENE4.8 kmh ENE 5.0 mph8.0 kmh 30.27 in1025.1 mb 0.00 in0.0 mm 0.00 in0.0 mm 0.00 in0.0 mm
04:18 PM 54.5°F12.5°C 38.2°F3.4°C 54% 1.0 mph ENE1.6 kmh ENE 5.0 mph8.0 kmh 30.27 in1025.1 mb 0.00 in0.0 mm 0.00 in0.0 mm 0.00 in0.0 mm
04:20 PM 54.3°F12.4°C 38.5°F3.6°C 55% Calm Calm 5.0 mph8.0 kmh 30.27 in1025.1 mb 0.00 in0.0 mm 0.00 in0.0 mm 0.00 in0.0 mm
04:22 PM 54.4°F12.4°C 38.6°F3.7°C 55% Calm Calm 9.0 mph14.5 kmh 30.27 in1025.1 mb 0.00 in0.0 mm 0.00 in0.0 mm 0.00 in0.0 mm
04:24 PM 54.2°F12.3°C 38.4°F3.6°C 55% Calm Calm 9.0 mph14.5 kmh 30.27 in1025.1 mb 0.00 in0.0 mm 0.00 in0.0 mm 0.00 in0.0 mm
04:26 PM 54.2°F12.3°C 38.9°F3.8°C 56% 1.0 mph NE1.6 kmh NE 9.0 mph14.5 kmh 30.27 in1025.1 mb 0.00 in0.0 mm 0.00 in0.0 mm 0.00 in0.0 mm
04:28 PM 54.2°F12.3°C 38.9°F3.8°C 56% 2.0 mph NE3.2 kmh NE 9.0 mph14.5 kmh 30.27 in1025.1 mb 0.00 in0.0 mm 0.00 in0.0 mm 0.00 in0.0 mm
04:30 PM 54.1°F12.3°C 38.8°F3.8°C 56% 2.0 mph NE3.2 kmh NE 9.0 mph14.5 kmh 30.27 in1025.1 mb 0.00 in0.0 mm 0.00 in0.0 mm 0.00 in0.0 mm
04:32 PM 54.0°F12.2°C 38.7°F3.7°C 56% 1.0 mph NE1.6 kmh NE 1.0 mph1.6 kmh 30.27 in1025.1 mb 0.00 in0.0 mm 0.00 in0.0 mm 0.00 in0.0 mm
04:34 PM 54.0°F12.2°C 38.7°F3.7°C 56% 1.0 mph NE1.6 kmh NE 5.0 mph8.0 kmh 30.27 in1025.1 mb 0.00 in0.0 mm 0.00 in0.0 mm 0.00 in0.0 mm
04:36 PM 53.9°F12.2°C 38.6°F3.7°C 56% 4.0 mph NE6.4 kmh NE 5.0 mph8.0 kmh 30.27 in1025.1 mb 0.00 in0.0 mm 0.00 in0.0 mm 0.00 in0.0 mm
04:38 PM 53.8°F12.1°C 38.5°F3.6°C 56% 1.0 mph NE1.6 kmh NE 5.0 mph8.0 kmh 30.27 in1025.1 mb 0.00 in0.0 mm 0.00 in0.0 mm 0.00 in0.0 mm
04:40 PM 53.8°F12.1°C 38.9°F3.8°C 57% 1.0 mph NE1.6 kmh NE 5.0 mph8.0 kmh 30.27 in1025.1 mb 0.00 in0.0 mm 0.00 in0.0 mm 0.00 in0.0 mm
04:42 PM 53.8°F12.1°C 38.9°F3.8°C 57% 1.0 mph NE1.6 kmh NE 5.0 mph8.0 kmh 30.27 in1025.1 mb 0.00 in0.0 mm 0.00 in0.0 mm 0.00 in0.0 mm
04:44 PM 53.8°F12.1°C 38.9°F3.8°C 57% Calm Calm 5.0 mph8.0 kmh 30.27 in1025.1 mb 0.00 in0.0 mm 0.00 in0.0 mm 0.00 in0.0 mm
04:46 PM 53.8°F12.1°C 38.5°F3.6°C 56% Calm Calm 5.0 mph8.0 kmh 30.27 in1025.1 mb 0.00 in0.0 mm 0.00 in0.0 mm 0.00 in0.0 mm
04:48 PM 53.9°F12.2°C 38.6°F3.7°C 56% Calm Calm 5.0 mph8.0 kmh 30.27 in1025.1 mb 0.00 in0.0 mm 0.00 in0.0 mm 0.00 in0.0 mm
04:50 PM 53.9°F12.2°C 38.6°F3.7°C 56% 3.0 mph NE4.8 kmh NE 5.0 mph8.0 kmh 30.27 in1025.1 mb 0.00 in0.0 mm 0.00 in0.0 mm 0.00 in0.0 mm
04:52 PM 54.0°F12.2°C 38.7°F3.7°C 56% 2.0 mph NE3.2 kmh NE 5.0 mph8.0 kmh 30.27 in1025.1 mb 0.00 in0.0 mm 0.00 in0.0 mm 0.00 in0.0 mm
04:54 PM 53.8°F12.1°C 38.5°F3.6°C 56% 2.0 mph ENE3.2 kmh ENE 5.0 mph8.0 kmh 30.26 in1024.7 mb 0.00 in0.0 mm 0.00 in0.0 mm 0.00 in0.0 mm
04:56 PM 53.8°F12.1°C 38.5°F3.6°C 56% 2.0 mph E3.2 kmh E 5.0 mph8.0 kmh 30.27 in1025.1 mb 0.00 in0.0 mm 0.00 in0.0 mm 0.00 in0.0 mm
04:58 PM 53.6°F12.0°C 38.3°F3.5°C 56% 2.0 mph E3.2 kmh E 5.0 mph8.0 kmh 30.26 in1024.7 mb 0.00 in0.0 mm 0.00 in0.0 mm 0.00 in0.0 mm
05:00 PM 53.4°F11.9°C 37.7°F3.2°C 55% 6.0 mph E9.7 kmh E 7.0 mph11.3 kmh 30.27 in1025.1 mb 0.00 in0.0 mm 0.00 in0.0 mm 0.00 in0.0 mm
05:02 PM 53.2°F11.8°C 37.9°F3.3°C 56% 3.0 mph E4.8 kmh E 3.0 mph4.8 kmh 30.26 in1024.7 mb 0.00 in0.0 mm 0.00 in0.0 mm 0.00 in0.0 mm
05:04 PM 53.0°F11.7°C 37.7°F3.2°C 56% 2.0 mph E3.2 kmh E 4.0 mph6.4 kmh 30.27 in1025.1 mb 0.00 in0.0 mm 0.00 in0.0 mm 0.00 in0.0 mm
05:06 PM 52.8°F11.6°C 38.0°F3.3°C 57% 2.0 mph E3.2 kmh E 4.0 mph6.4 kmh 30.27 in1025.1 mb 0.00 in0.0 mm 0.00 in0.0 mm 0.00 in0.0 mm
05:08 PM 52.8°F11.6°C 38.0°F3.3°C 57% 2.0 mph E3.2 kmh E 4.0 mph6.4 kmh 30.27 in1025.1 mb 0.00 in0.0 mm 0.00 in0.0 mm 0.00 in0.0 mm
05:09 PM 52.7°F11.5°C 37.9°F3.3°C 57% 2.0 mph E3.2 kmh E 4.0 mph6.4 kmh 30.27 in1025.1 mb 0.00 in0.0 mm 0.00 in0.0 mm 0.00 in0.0 mm
05:12 PM 52.5°F11.4°C 37.7°F3.2°C 57% 4.0 mph E6.4 kmh E 4.0 mph6.4 kmh 30.27 in1025.1 mb 0.00 in0.0 mm 0.00 in0.0 mm 0.00 in0.0 mm
05:13 PM 52.4°F11.3°C 37.6°F3.1°C 57% 1.0 mph E1.6 kmh E 4.0 mph6.4 kmh 30.27 in1025.1 mb 0.00 in0.0 mm 0.00 in0.0 mm 0.00 in0.0 mm
05:16 PM 52.3°F11.3°C 37.5°F3.1°C 57% 2.0 mph E3.2 kmh E 4.0 mph6.4 kmh 30.27 in1025.1 mb 0.00 in0.0 mm 0.00 in0.0 mm 0.00 in0.0 mm
05:18 PM 52.1°F11.2°C 37.8°F3.2°C 58% 2.0 mph E3.2 kmh E 4.0 mph6.4 kmh 30.27 in1025.1 mb 0.00 in0.0 mm 0.00 in0.0 mm 0.00 in0.0 mm
05:20 PM 52.0°F11.1°C 37.7°F3.2°C 58% 2.0 mph E3.2 kmh E 4.0 mph6.4 kmh 30.27 in1025.1 mb 0.00 in0.0 mm 0.00 in0.0 mm 0.00 in0.0 mm
05:22 PM 51.9°F11.1°C 38.0°F3.3°C 59% 1.0 mph E1.6 kmh E 4.0 mph6.4 kmh 30.27 in1025.1 mb 0.00 in0.0 mm 0.00 in0.0 mm 0.00 in0.0 mm
05:24 PM 51.8°F11.0°C 38.4°F3.6°C 60% Calm Calm 4.0 mph6.4 kmh 30.27 in1025.1 mb 0.00 in0.0 mm 0.00 in0.0 mm 0.00 in0.0 mm
05:26 PM 51.7°F10.9°C 38.3°F3.5°C 60% Calm Calm 4.0 mph6.4 kmh 30.27 in1025.1 mb 0.00 in0.0 mm 0.00 in0.0 mm 0.00 in0.0 mm
05:28 PM 51.6°F10.9°C 38.2°F3.4°C 60% 1.0 mph E1.6 kmh E 4.0 mph6.4 kmh 30.27 in1025.1 mb 0.00 in0.0 mm 0.00 in0.0 mm 0.00 in0.0 mm
05:30 PM 51.4°F10.8°C 38.0°F3.3°C 60% 2.0 mph E3.2 kmh E 4.0 mph6.4 kmh 30.26 in1024.7 mb 0.00 in0.0 mm 0.00 in0.0 mm 0.00 in0.0 mm
05:32 PM 51.3°F10.7°C 38.3°F3.5°C 61% 2.0 mph E3.2 kmh E 2.0 mph3.2 kmh 30.27 in1025.1 mb 0.00 in0.0 mm 0.00 in0.0 mm 0.00 in0.0 mm
05:34 PM 51.2°F10.7°C 38.2°F3.4°C 61% 1.0 mph E1.6 kmh E 3.0 mph4.8 kmh 30.27 in1025.1 mb 0.00 in0.0 mm 0.00 in0.0 mm 0.00 in0.0 mm
05:36 PM 51.1°F10.6°C 38.1°F3.4°C 61% 3.0 mph E4.8 kmh E 3.0 mph4.8 kmh 30.27 in1025.1 mb 0.00 in0.0 mm 0.00 in0.0 mm 0.00 in0.0 mm
05:38 PM 51.0°F10.6°C 38.0°F3.3°C 61% 2.0 mph E3.2 kmh E 3.0 mph4.8 kmh 30.26 in1024.7 mb 0.00 in0.0 mm 0.00 in0.0 mm 0.00 in0.0 mm
05:40 PM 50.9°F10.5°C 38.4°F3.6°C 62% 1.0 mph E1.6 kmh E 3.0 mph4.8 kmh 30.27 in1025.1 mb 0.00 in0.0 mm 0.00 in0.0 mm 0.00 in0.0 mm
05:42 PM 50.8°F10.4°C 38.3°F3.5°C 62% 1.0 mph E1.6 kmh E 3.0 mph4.8 kmh 30.27 in1025.1 mb 0.00 in0.0 mm 0.00 in0.0 mm 0.00 in0.0 mm
05:44 PM 50.7°F10.4°C 38.2°F3.4°C 62% 3.0 mph E4.8 kmh E 3.0 mph4.8 kmh 30.27 in1025.1 mb 0.00 in0.0 mm 0.00 in0.0 mm 0.00 in0.0 mm
05:46 PM 50.5°F10.3°C 38.4°F3.6°C 63% 2.0 mph E3.2 kmh E 3.0 mph4.8 kmh 30.26 in1024.7 mb 0.00 in0.0 mm 0.00 in0.0 mm 0.00 in0.0 mm
05:48 PM 50.4°F10.2°C 38.3°F3.5°C 63% 2.0 mph E3.2 kmh E 3.0 mph4.8 kmh 30.27 in1025.1 mb 0.00 in0.0 mm 0.00 in0.0 mm 0.00 in0.0 mm
05:50 PM 50.3°F10.2°C 38.2°F3.4°C 63% 1.0 mph E1.6 kmh E 3.0 mph4.8 kmh 30.27 in1025.1 mb 0.00 in0.0 mm 0.00 in0.0 mm 0.00 in0.0 mm
05:52 PM 50.2°F10.1°C 38.1°F3.4°C 63% 1.0 mph E1.6 kmh E 3.0 mph4.8 kmh 30.27 in1025.1 mb 0.00 in0.0 mm 0.00 in0.0 mm 0.00 in0.0 mm
05:54 PM 50.1°F10.1°C 38.0°F3.3°C 63% 3.0 mph E4.8 kmh E 3.0 mph4.8 kmh 30.27 in1025.1 mb 0.00 in0.0 mm 0.00 in0.0 mm 0.00 in0.0 mm
05:56 PM 50.0°F10.0°C 37.9°F3.3°C 63% 2.0 mph E3.2 kmh E 3.0 mph4.8 kmh 30.27 in1025.1 mb 0.00 in0.0 mm 0.00 in0.0 mm 0.00 in0.0 mm
05:58 PM 50.0°F10.0°C 37.9°F3.3°C 63% 1.0 mph E1.6 kmh E 3.0 mph4.8 kmh 30.27 in1025.1 mb 0.00 in0.0 mm 0.00 in0.0 mm 0.00 in0.0 mm
06:00 PM 49.9°F9.9°C 38.2°F3.4°C 64% 2.0 mph E3.2 kmh E 3.0 mph4.8 kmh 30.27 in1025.1 mb 0.00 in0.0 mm 0.00 in0.0 mm 0.00 in0.0 mm
06:02 PM 49.8°F9.9°C 38.1°F3.4°C 64% 2.0 mph E3.2 kmh E 3.0 mph4.8 kmh 30.27 in1025.1 mb 0.00 in0.0 mm 0.00 in0.0 mm 0.00 in0.0 mm
06:04 PM 49.7°F9.8°C 38.0°F3.3°C 64% 4.0 mph E6.4 kmh E 4.0 mph6.4 kmh 30.27 in1025.1 mb 0.00 in0.0 mm 0.00 in0.0 mm 0.00 in0.0 mm
06:06 PM 49.7°F9.8°C 38.0°F3.3°C 64% 2.0 mph E3.2 kmh E 4.0 mph6.4 kmh 30.27 in1025.1 mb 0.00 in0.0 mm 0.00 in0.0 mm 0.00 in0.0 mm
06:08 PM 49.6°F9.8°C 37.9°F3.3°C 64% 2.0 mph E3.2 kmh E 4.0 mph6.4 kmh 30.27 in1025.1 mb 0.00 in0.0 mm 0.00 in0.0 mm 0.00 in0.0 mm
06:10 PM 49.5°F9.7°C 37.8°F3.2°C 64% 1.0 mph E1.6 kmh E 4.0 mph6.4 kmh 30.27 in1025.1 mb 0.00 in0.0 mm 0.00 in0.0 mm 0.00 in0.0 mm
06:12 PM 49.3°F9.6°C 37.7°F3.2°C 64% 1.0 mph E1.6 kmh E 4.0 mph6.4 kmh 30.27 in1025.1 mb 0.00 in0.0 mm 0.00 in0.0 mm 0.00 in0.0 mm
06:14 PM 49.3°F9.6°C 38.1°F3.4°C 65% 1.0 mph E1.6 kmh E 4.0 mph6.4 kmh 30.28 in1025.4 mb 0.00 in0.0 mm 0.00 in0.0 mm 0.00 in0.0 mm
06:16 PM 49.2°F9.6°C 38.0°F3.3°C 65% 2.0 mph E3.2 kmh E 4.0 mph6.4 kmh 30.28 in1025.4 mb 0.00 in0.0 mm 0.00 in0.0 mm 0.00 in0.0 mm
06:18 PM 49.1°F9.5°C 37.9°F3.3°C 65% 3.0 mph E4.8 kmh E 4.0 mph6.4 kmh 30.28 in1025.4 mb 0.00 in0.0 mm 0.00 in0.0 mm 0.00 in0.0 mm
06:20 PM 49.1°F9.5°C 37.9°F3.3°C 65% 2.0 mph E3.2 kmh E 4.0 mph6.4 kmh 30.28 in1025.4 mb 0.00 in0.0 mm 0.00 in0.0 mm 0.00 in0.0 mm
06:22 PM 49.1°F9.5°C 37.9°F3.3°C 65% 1.0 mph E1.6 kmh E 4.0 mph6.4 kmh 30.28 in1025.4 mb 0.00 in0.0 mm 0.00 in0.0 mm 0.00 in0.0 mm
06:24 PM 49.0°F9.4°C 38.2°F3.4°C 66% Calm Calm 4.0 mph6.4 kmh 30.28 in1025.4 mb 0.00 in0.0 mm 0.00 in0.0 mm 0.00 in0.0 mm
06:26 PM 49.0°F9.4°C 38.2°F3.4°C 66% Calm Calm 4.0 mph6.4 kmh 30.28 in1025.4 mb 0.00 in0.0 mm 0.00 in0.0 mm 0.00 in0.0 mm
06:28 PM 48.9°F9.4°C 38.1°F3.4°C 66% Calm Calm 4.0 mph6.4 kmh 30.28 in1025.4 mb 0.00 in0.0 mm 0.00 in0.0 mm 0.00 in0.0 mm
06:30 PM 48.9°F9.4°C 38.1°F3.4°C 66% 1.0 mph E1.6 kmh E 4.0 mph6.4 kmh 30.28 in1025.4 mb 0.00 in0.0 mm 0.00 in0.0 mm 0.00 in0.0 mm
06:32 PM 48.8°F9.3°C 38.0°F3.3°C 66% 2.0 mph E3.2 kmh E 2.0 mph3.2 kmh 30.28 in1025.4 mb 0.00 in0.0 mm 0.00 in0.0 mm 0.00 in0.0 mm
06:34 PM 48.8°F9.3°C 38.0°F3.3°C 66% 2.0 mph E3.2 kmh E 2.0 mph3.2 kmh 30.28 in1025.4 mb 0.00 in0.0 mm 0.00 in0.0 mm 0.00 in0.0 mm
06:36 PM 48.8°F9.3°C 38.0°F3.3°C 66% 1.0 mph E1.6 kmh E 2.0 mph3.2 kmh 30.28 in1025.4 mb 0.00 in0.0 mm 0.00 in0.0 mm 0.00 in0.0 mm
06:38 PM 48.8°F9.3°C 38.0°F3.3°C 66% 1.0 mph E1.6 kmh E 2.0 mph3.2 kmh 30.28 in1025.4 mb 0.00 in0.0 mm 0.00 in0.0 mm 0.00 in0.0 mm
06:40 PM 48.6°F9.2°C 38.2°F3.4°C 67% Calm Calm 2.0 mph3.2 kmh 30.28 in1025.4 mb 0.00 in0.0 mm 0.00 in0.0 mm 0.00 in0.0 mm
06:42 PM 48.6°F9.2°C 38.2°F3.4°C 67% Calm Calm 2.0 mph3.2 kmh 30.28 in1025.4 mb 0.00 in0.0 mm 0.00 in0.0 mm 0.00 in0.0 mm
06:44 PM 48.6°F9.2°C 38.5°F3.6°C 68% Calm Calm 2.0 mph3.2 kmh 30.28 in1025.4 mb 0.00 in0.0 mm 0.00 in0.0 mm 0.00 in0.0 mm
06:46 PM 48.6°F9.2°C 38.5°F3.6°C 68% Calm Calm 2.0 mph3.2 kmh 30.28 in1025.4 mb 0.00 in0.0 mm 0.00 in0.0 mm 0.00 in0.0 mm
06:48 PM 48.5°F9.2°C 38.4°F3.6°C 68% Calm Calm 2.0 mph3.2 kmh 30.28 in1025.4 mb 0.00 in0.0 mm 0.00 in0.0 mm 0.00 in0.0 mm
06:50 PM 48.4°F9.1°C 38.3°F3.5°C 68% Calm Calm 2.0 mph3.2 kmh 30.28 in1025.4 mb 0.00 in0.0 mm 0.00 in0.0 mm 0.00 in0.0 mm
06:52 PM 48.4°F9.1°C 38.3°F3.5°C 68% Calm Calm 2.0 mph3.2 kmh 30.28 in1025.4 mb 0.00 in0.0 mm 0.00 in0.0 mm 0.00 in0.0 mm
06:54 PM 48.3°F9.1°C 37.9°F3.3°C 67% Calm Calm 2.0 mph3.2 kmh 30.28 in1025.4 mb 0.00 in0.0 mm 0.00 in0.0 mm 0.00 in0.0 mm
06:56 PM 48.3°F9.1°C 37.5°F3.1°C 66% Calm Calm 2.0 mph3.2 kmh 30.28 in1025.4 mb 0.00 in0.0 mm 0.00 in0.0 mm 0.00 in0.0 mm
06:58 PM 48.4°F9.1°C 37.6°F3.1°C 66% Calm Calm 2.0 mph3.2 kmh 30.28 in1025.4 mb 0.00 in0.0 mm 0.00 in0.0 mm 0.00 in0.0 mm
07:00 PM 48.5°F9.2°C 37.7°F3.2°C 66% Calm Calm 2.0 mph3.2 kmh 30.28 in1025.4 mb 0.00 in0.0 mm 0.00 in0.0 mm 0.00 in0.0 mm
07:02 PM 48.6°F9.2°C 37.8°F3.2°C 66% Calm Calm -- 30.28 in1025.4 mb 0.00 in0.0 mm 0.00 in0.0 mm 0.00 in0.0 mm
07:04 PM 48.8°F9.3°C 38.0°F3.3°C 66% Calm Calm -- 30.28 in1025.4 mb 0.00 in0.0 mm 0.00 in0.0 mm 0.00 in0.0 mm
07:06 PM 48.8°F9.3°C 37.6°F3.1°C 65% Calm Calm -- 30.28 in1025.4 mb 0.00 in0.0 mm 0.00 in0.0 mm 0.00 in0.0 mm
07:08 PM 48.8°F9.3°C 37.6°F3.1°C 65% Calm Calm -- 30.28 in1025.4 mb 0.00 in0.0 mm 0.00 in0.0 mm 0.00 in0.0 mm
07:10 PM 48.8°F9.3°C 37.6°F3.1°C 65% Calm Calm -- 30.28 in1025.4 mb 0.00 in0.0 mm 0.00 in0.0 mm 0.00 in0.0 mm
07:12 PM 48.8°F9.3°C 37.6°F3.1°C 65% Calm Calm -- 30.28 in1025.4 mb 0.00 in0.0 mm 0.00 in0.0 mm 0.00 in0.0 mm
07:14 PM 48.8°F9.3°C 37.6°F3.1°C 65% Calm Calm -- 30.28 in1025.4 mb 0.00 in0.0 mm 0.00 in0.0 mm 0.00 in0.0 mm
07:16 PM 48.8°F9.3°C 37.2°F2.9°C 64% Calm Calm -- 30.28 in1025.4 mb 0.00 in0.0 mm 0.00 in0.0 mm 0.00 in0.0 mm
07:18 PM 48.9°F9.4°C 36.9°F2.7°C 63% Calm Calm -- 30.28 in1025.4 mb 0.00 in0.0 mm 0.00 in0.0 mm 0.00 in0.0 mm
07:20 PM 49.0°F9.4°C 37.4°F3.0°C 64% Calm Calm -- 30.28 in1025.4 mb 0.00 in0.0 mm 0.00 in0.0 mm 0.00 in0.0 mm
07:22 PM 49.0°F9.4°C 37.4°F3.0°C 64% Calm Calm -- 30.29 in1025.7 mb 0.00 in0.0 mm 0.00 in0.0 mm 0.00 in0.0 mm
07:24 PM 49.0°F9.4°C 37.4°F3.0°C 64% Calm Calm -- 30.29 in1025.7 mb 0.00 in0.0 mm 0.00 in0.0 mm 0.00 in0.0 mm
07:26 PM 48.9°F9.4°C 37.3°F2.9°C 64% Calm Calm -- 30.28 in1025.4 mb 0.00 in0.0 mm 0.00 in0.0 mm 0.00 in0.0 mm
07:28 PM 48.8°F9.3°C 37.6°F3.1°C 65% Calm Calm -- 30.29 in1025.7 mb 0.00 in0.0 mm 0.00 in0.0 mm 0.00 in0.0 mm
07:30 PM 48.7°F9.3°C 37.5°F3.1°C 65% Calm Calm -- 30.29 in1025.7 mb 0.00 in0.0 mm 0.00 in0.0 mm 0.00 in0.0 mm
07:32 PM 48.5°F9.2°C 37.7°F3.2°C 66% Calm Calm -- 30.29 in1025.7 mb 0.00 in0.0 mm 0.00 in0.0 mm 0.00 in0.0 mm
07:34 PM 48.4°F9.1°C 37.6°F3.1°C 66% Calm Calm -- 30.29 in1025.7 mb 0.00 in0.0 mm 0.00 in0.0 mm 0.00 in0.0 mm
07:36 PM 48.3°F9.1°C 37.1°F2.8°C 65% Calm Calm -- 30.29 in1025.7 mb 0.00 in0.0 mm 0.00 in0.0 mm 0.00 in0.0 mm
07:38 PM 48.3°F9.1°C 37.1°F2.8°C 65% Calm Calm -- 30.29 in1025.7 mb 0.00 in0.0 mm 0.00 in0.0 mm 0.00 in0.0 mm
07:40 PM 48.3°F9.1°C 37.1°F2.8°C 65% Calm Calm -- 30.29 in1025.7 mb 0.00 in0.0 mm 0.00 in0.0 mm 0.00 in0.0 mm
07:42 PM 48.3°F9.1°C 37.1°F2.8°C 65% Calm Calm -- 30.29 in1025.7 mb 0.00 in0.0 mm 0.00 in0.0 mm 0.00 in0.0 mm
07:44 PM 48.3°F9.1°C 36.7°F2.6°C 64% Calm Calm -- 30.29 in1025.7 mb 0.00 in0.0 mm 0.00 in0.0 mm 0.00 in0.0 mm
07:46 PM 48.3°F9.1°C 36.7°F2.6°C 64% Calm Calm -- 30.29 in1025.7 mb 0.00 in0.0 mm 0.00 in0.0 mm 0.00 in0.0 mm
07:48 PM 48.3°F9.1°C 37.1°F2.8°C 65% Calm Calm -- 30.29 in1025.7 mb 0.00 in0.0 mm 0.00 in0.0 mm 0.00 in0.0 mm
07:50 PM 48.3°F9.1°C 37.5°F3.1°C 66% Calm Calm -- 30.29 in1025.7 mb 0.00 in0.0 mm 0.00 in0.0 mm 0.00 in0.0 mm
07:52 PM 48.2°F9.0°C 37.8°F3.2°C 67% Calm Calm -- 30.29 in1025.7 mb 0.00 in0.0 mm 0.00 in0.0 mm 0.00 in0.0 mm
07:54 PM 48.1°F8.9°C 38.1°F3.4°C 68% Calm Calm -- 30.29 in1025.7 mb 0.00 in0.0 mm 0.00 in0.0 mm 0.00 in0.0 mm
07:56 PM 48.0°F8.9°C 38.3°F3.5°C 69% Calm Calm -- 30.29 in1025.7 mb 0.00 in0.0 mm 0.00 in0.0 mm 0.00 in0.0 mm
07:58 PM 47.9°F8.8°C 38.2°F3.4°C 69% Calm Calm -- 30.29 in1025.7 mb 0.00 in0.0 mm 0.00 in0.0 mm 0.00 in0.0 mm
08:00 PM 47.7°F8.7°C 38.4°F3.6°C 70% Calm Calm -- 30.29 in1025.7 mb 0.00 in0.0 mm 0.00 in0.0 mm 0.00 in0.0 mm
08:02 PM 47.7°F8.7°C 37.7°F3.2°C 68% Calm Calm -- 30.29 in1025.7 mb 0.00 in0.0 mm 0.00 in0.0 mm 0.00 in0.0 mm
08:04 PM 47.5°F8.6°C 36.7°F2.6°C 66% Calm Calm -- 30.29 in1025.7 mb 0.00 in0.0 mm 0.00 in0.0 mm 0.00 in0.0 mm
08:06 PM 47.4°F8.6°C 36.2°F2.3°C 65% Calm Calm -- 30.29 in1025.7 mb 0.00 in0.0 mm 0.00 in0.0 mm 0.00 in0.0 mm
08:08 PM 47.5°F8.6°C 36.7°F2.6°C 66% Calm Calm -- 30.29 in1025.7 mb 0.00 in0.0 mm 0.00 in0.0 mm 0.00 in0.0 mm
08:10 PM 47.5°F8.6°C 37.5°F3.1°C 68% Calm Calm -- 30.29 in1025.7 mb 0.00 in0.0 mm 0.00 in0.0 mm 0.00 in0.0 mm
08:12 PM 47.6°F8.7°C 38.0°F3.3°C 69% Calm Calm -- 30.29 in1025.7 mb 0.00 in0.0 mm 0.00 in0.0 mm 0.00 in0.0 mm
08:14 PM 47.5°F8.6°C 37.9°F3.3°C 69% Calm Calm -- 30.29 in1025.7 mb 0.00 in0.0 mm 0.00 in0.0 mm 0.00 in0.0 mm
08:16 PM 47.5°F8.6°C 37.9°F3.3°C 69% Calm Calm -- 30.29 in1025.7 mb 0.00 in0.0 mm 0.00 in0.0 mm 0.00 in0.0 mm
08:18 PM 47.5°F8.6°C 37.5°F3.1°C 68% Calm Calm -- 30.29 in1025.7 mb 0.00 in0.0 mm 0.00 in0.0 mm 0.00 in0.0 mm
08:20 PM 47.5°F8.6°C 37.5°F3.1°C 68% Calm Calm -- 30.29 in1025.7 mb 0.00 in0.0 mm 0.00 in0.0 mm 0.00 in0.0 mm
08:22 PM 47.4°F8.6°C 37.0°F2.8°C 67% Calm Calm -- 30.29 in1025.7 mb 0.00 in0.0 mm 0.00 in0.0 mm 0.00 in0.0 mm
08:24 PM 47.4°F8.6°C 36.2°F2.3°C 65% Calm Calm -- 30.29 in1025.7 mb 0.00 in0.0 mm 0.00 in0.0 mm 0.00 in0.0 mm
08:26 PM 47.3°F8.5°C 35.8°F2.1°C 64% Calm Calm -- 30.29 in1025.7 mb 0.00 in0.0 mm 0.00 in0.0 mm 0.00 in0.0 mm
08:28 PM 47.3°F8.5°C 36.2°F2.3°C 65% Calm Calm -- 30.29 in1025.7 mb 0.00 in0.0 mm 0.00 in0.0 mm 0.00 in0.0 mm
08:30 PM 47.4°F8.6°C 36.2°F2.3°C 65% Calm Calm -- 30.29 in1025.7 mb 0.00 in0.0 mm 0.00 in0.0 mm 0.00 in0.0 mm
08:32 PM 47.3°F8.5°C 36.2°F2.3°C 65% Calm Calm -- 30.29 in1025.7 mb 0.00 in0.0 mm 0.00 in0.0 mm 0.00 in0.0 mm
08:34 PM 47.3°F8.5°C 35.8°F2.1°C 64% Calm Calm -- 30.29 in1025.7 mb 0.00 in0.0 mm 0.00 in0.0 mm 0.00 in0.0 mm
08:36 PM 47.2°F8.4°C 35.7°F2.1°C 64% Calm Calm -- 30.29 in1025.7 mb 0.00 in0.0 mm 0.00 in0.0 mm 0.00 in0.0 mm
08:38 PM 47.2°F8.4°C 36.1°F2.3°C 65% Calm Calm -- 30.29 in1025.7 mb 0.00 in0.0 mm 0.00 in0.0 mm 0.00 in0.0 mm
08:40 PM 47.2°F8.4°C 36.1°F2.3°C 65% Calm Calm -- 30.29 in1025.7 mb 0.00 in0.0 mm 0.00 in0.0 mm 0.00 in0.0 mm
08:42 PM 47.3°F8.5°C 37.3°F2.9°C 68% Calm Calm -- 30.29 in1025.7 mb 0.00 in0.0 mm 0.00 in0.0 mm 0.00 in0.0 mm
08:44 PM 47.4°F8.6°C 38.1°F3.4°C 70% Calm Calm -- 30.29 in1025.7 mb 0.00 in0.0 mm 0.00 in0.0 mm 0.00 in0.0 mm
08:46 PM 47.4°F8.6°C 38.5°F3.6°C 71% Calm Calm -- 30.29 in1025.7 mb 0.00 in0.0 mm 0.00 in0.0 mm 0.00 in0.0 mm
08:48 PM 47.2°F8.4°C 37.9°F3.3°C 70% Calm Calm -- 30.29 in1025.7 mb 0.00 in0.0 mm 0.00 in0.0 mm 0.00 in0.0 mm
08:50 PM 47.1°F8.4°C 37.5°F3.1°C 69% Calm Calm -- 30.29 in1025.7 mb 0.00 in0.0 mm 0.00 in0.0 mm 0.00 in0.0 mm
08:52 PM 47.0°F8.3°C 36.3°F2.4°C 66% Calm Calm -- 30.28 in1025.4 mb 0.00 in0.0 mm 0.00 in0.0 mm 0.00 in0.0 mm
08:54 PM 47.1°F8.4°C 35.2°F1.8°C 63% Calm Calm -- 30.29 in1025.7 mb 0.00 in0.0 mm 0.00 in0.0 mm 0.00 in0.0 mm
08:56 PM 47.2°F8.4°C 34.9°F1.6°C 62% Calm Calm -- 30.29 in1025.7 mb 0.00 in0.0 mm 0.00 in0.0 mm 0.00 in0.0 mm
08:58 PM 47.4°F8.6°C 34.6°F1.4°C 61% Calm Calm -- 30.29 in1025.7 mb 0.00 in0.0 mm 0.00 in0.0 mm 0.00 in0.0 mm
09:00 PM 47.6°F8.7°C 35.2°F1.8°C 62% Calm Calm -- 30.29 in1025.7 mb 0.00 in0.0 mm 0.00 in0.0 mm 0.00 in0.0 mm
09:02 PM 47.7°F8.7°C 36.1°F2.3°C 64% Calm Calm -- 30.29 in1025.7 mb 0.00 in0.0 mm 0.00 in0.0 mm 0.00 in0.0 mm
09:04 PM 47.8°F8.8°C 36.2°F2.3°C 64% Calm Calm -- 30.29 in1025.7 mb 0.00 in0.0 mm 0.00 in0.0 mm 0.00 in0.0 mm
09:06 PM 47.8°F8.8°C 36.2°F2.3°C 64% Calm Calm -- 30.29 in1025.7 mb 0.00 in0.0 mm 0.00 in0.0 mm 0.00 in0.0 mm
09:08 PM 47.7°F8.7°C 36.1°F2.3°C 64% Calm Calm -- 30.29 in1025.7 mb 0.00 in0.0 mm 0.00 in0.0 mm 0.00 in0.0 mm
09:10 PM 47.7°F8.7°C 35.3°F1.8°C 62% Calm Calm -- 30.29 in1025.7 mb 0.00 in0.0 mm 0.00 in0.0 mm 0.00 in0.0 mm
09:12 PM 47.7°F8.7°C 35.3°F1.8°C 62% Calm Calm -- 30.29 in1025.7 mb 0.00 in0.0 mm 0.00 in0.0 mm 0.00 in0.0 mm
09:14 PM 47.7°F8.7°C 35.3°F1.8°C 62% Calm Calm -- 30.29 in1025.7 mb 0.00 in0.0 mm 0.00 in0.0 mm 0.00 in0.0 mm
09:16 PM 47.8°F8.8°C 35.0°F1.7°C 61% Calm Calm -- 30.29 in1025.7 mb 0.00 in0.0 mm 0.00 in0.0 mm 0.00 in0.0 mm
09:18 PM 47.8°F8.8°C 34.6°F1.4°C 60% Calm Calm -- 30.29 in1025.7 mb 0.00 in0.0 mm 0.00 in0.0 mm 0.00 in0.0 mm
09:20 PM 47.9°F8.8°C 34.7°F1.5°C 60% Calm Calm -- 30.29 in1025.7 mb 0.00 in0.0 mm 0.00 in0.0 mm 0.00 in0.0 mm
09:22 PM 47.9°F8.8°C 34.3°F1.3°C 59% Calm Calm -- 30.29 in1025.7 mb 0.00 in0.0 mm 0.00 in0.0 mm 0.00 in0.0 mm
09:24 PM 48.0°F8.9°C 33.5°F0.8°C 57% Calm Calm -- 30.29 in1025.7 mb 0.00 in0.0 mm 0.00 in0.0 mm 0.00 in0.0 mm
09:26 PM 48.1°F8.9°C 33.6°F0.9°C 57% Calm Calm -- 30.29 in1025.7 mb 0.00 in0.0 mm 0.00 in0.0 mm 0.00 in0.0 mm
09:28 PM 48.2°F9.0°C 33.7°F0.9°C 57% Calm Calm -- 30.29 in1025.7 mb 0.00 in0.0 mm 0.00 in0.0 mm 0.00 in0.0 mm
09:30 PM 48.2°F9.0°C 34.6°F1.4°C 59% Calm Calm -- 30.29 in1025.7 mb 0.00 in0.0 mm 0.00 in0.0 mm 0.00 in0.0 mm
09:32 PM 48.2°F9.0°C 34.6°F1.4°C 59% Calm Calm -- 30.29 in1025.7 mb 0.00 in0.0 mm 0.00 in0.0 mm 0.00 in0.0 mm
09:34 PM 48.2°F9.0°C 34.6°F1.4°C 59% Calm Calm -- 30.29 in1025.7 mb 0.00 in0.0 mm 0.00 in0.0 mm 0.00 in0.0 mm
09:36 PM 48.1°F8.9°C 34.9°F1.6°C 60% Calm Calm -- 30.29 in1025.7 mb 0.00 in0.0 mm 0.00 in0.0 mm 0.00 in0.0 mm
09:38 PM 48.0°F8.9°C 34.8°F1.6°C 60% Calm Calm -- 30.29 in1025.7 mb 0.00 in0.0 mm 0.00 in0.0 mm 0.00 in0.0 mm
09:40 PM 47.8°F8.8°C 35.4°F1.9°C 62% Calm Calm -- 30.29 in1025.7 mb 0.00 in0.0 mm 0.00 in0.0 mm 0.00 in0.0 mm
09:42 PM 47.7°F8.7°C 35.7°F2.1°C 63% Calm Calm -- 30.29 in1025.7 mb 0.00 in0.0 mm 0.00 in0.0 mm 0.00 in0.0 mm
09:44 PM 47.6°F8.7°C 36.0°F2.2°C 64% Calm Calm -- 30.29 in1025.7 mb 0.00 in0.0 mm 0.00 in0.0 mm 0.00 in0.0 mm
09:46 PM 47.4°F8.6°C 36.6°F2.6°C 66% Calm Calm -- 30.29 in1025.7 mb 0.00 in0.0 mm 0.00 in0.0 mm 0.00 in0.0 mm
09:48 PM 47.2°F8.4°C 36.8°F2.7°C 67% Calm Calm -- 30.29 in1025.7 mb 0.00 in0.0 mm 0.00 in0.0 mm 0.00 in0.0 mm
09:50 PM 47.0°F8.3°C 36.6°F2.6°C 67% Calm Calm -- 30.29 in1025.7 mb 0.00 in0.0 mm 0.00 in0.0 mm 0.00 in0.0 mm
09:52 PM 46.8°F8.2°C 36.1°F2.3°C 66% Calm Calm -- 30.29 in1025.7 mb 0.00 in0.0 mm 0.00 in0.0 mm 0.00 in0.0 mm
09:54 PM 46.8°F8.2°C 35.7°F2.1°C 65% Calm Calm -- 30.29 in1025.7 mb 0.00 in0.0 mm 0.00 in0.0 mm 0.00 in0.0 mm
09:56 PM 46.7°F8.2°C 35.6°F2.0°C 65% Calm Calm -- 30.29 in1025.7 mb 0.00 in0.0 mm 0.00 in0.0 mm 0.00 in0.0 mm
09:58 PM 46.8°F8.2°C 36.4°F2.4°C 67% Calm Calm -- 30.29 in1025.7 mb 0.00 in0.0 mm 0.00 in0.0 mm 0.00 in0.0 mm
10:00 PM 46.8°F8.2°C 36.4°F2.4°C 67% Calm Calm -- 30.29 in1025.7 mb 0.00 in0.0 mm 0.00 in0.0 mm 0.00 in0.0 mm
10:02 PM 46.8°F8.2°C 36.8°F2.7°C 68% Calm Calm -- 30.29 in1025.7 mb 0.00 in0.0 mm 0.00 in0.0 mm 0.00 in0.0 mm
10:04 PM 46.8°F8.2°C 37.2°F2.9°C 69% Calm Calm -- 30.29 in1025.7 mb 0.00 in0.0 mm 0.00 in0.0 mm 0.00 in0.0 mm
10:06 PM 46.8°F8.2°C 37.2°F2.9°C 69% Calm Calm -- 30.29 in1025.7 mb 0.00 in0.0 mm 0.00 in0.0 mm 0.00 in0.0 mm
10:08 PM 46.8°F8.2°C 37.6°F3.1°C 70% Calm Calm -- 30.29 in1025.7 mb 0.00 in0.0 mm 0.00 in0.0 mm 0.00 in0.0 mm
10:10 PM 46.8°F8.2°C 37.6°F3.1°C 70% Calm Calm -- 30.29 in1025.7 mb 0.00 in0.0 mm 0.00 in0.0 mm 0.00 in0.0 mm
10:12 PM 46.8°F8.2°C 37.2°F2.9°C 69% Calm Calm -- 30.29 in1025.7 mb 0.00 in0.0 mm 0.00 in0.0 mm 0.00 in0.0 mm
10:14 PM 46.8°F8.2°C 36.8°F2.7°C 68% Calm Calm -- 30.29 in1025.7 mb 0.00 in0.0 mm 0.00 in0.0 mm 0.00 in0.0 mm
10:16 PM 46.9°F8.3°C 36.2°F2.3°C 66% Calm Calm -- 30.29 in1025.7 mb 0.00 in0.0 mm 0.00 in0.0 mm 0.00 in0.0 mm
10:18 PM 46.9°F8.3°C 35.8°F2.1°C 65% Calm Calm -- 30.29 in1025.7 mb 0.00 in0.0 mm 0.00 in0.0 mm 0.00 in0.0 mm
10:20 PM 47.0°F8.3°C 35.5°F1.9°C 64% Calm Calm -- 30.29 in1025.7 mb 0.00 in0.0 mm 0.00 in0.0 mm 0.00 in0.0 mm
10:22 PM 47.1°F8.4°C 35.6°F2.0°C 64% Calm Calm -- 30.29 in1025.7 mb 0.00 in0.0 mm 0.00 in0.0 mm 0.00 in0.0 mm
10:24 PM 47.2°F8.4°C 35.7°F2.1°C 64% Calm Calm -- 30.29 in1025.7 mb 0.00 in0.0 mm 0.00 in0.0 mm 0.00 in0.0 mm
10:26 PM 47.3°F8.5°C 35.8°F2.1°C 64% Calm Calm -- 30.29 in1025.7 mb 0.00 in0.0 mm 0.00 in0.0 mm 0.00 in0.0 mm
10:28 PM 47.2°F8.4°C 35.7°F2.1°C 64% Calm Calm -- 30.29 in1025.7 mb 0.00 in0.0 mm 0.00 in0.0 mm 0.00 in0.0 mm
10:30 PM 47.2°F8.4°C 35.7°F2.1°C 64% Calm Calm -- 30.29 in1025.7 mb 0.00 in0.0 mm 0.00 in0.0 mm 0.00 in0.0 mm
10:32 PM 47.1°F8.4°C 35.6°F2.0°C 64% Calm Calm -- 30.29 in1025.7 mb 0.00 in0.0 mm 0.00 in0.0 mm 0.00 in0.0 mm
10:34 PM 47.0°F8.3°C 35.1°F1.7°C 63% Calm Calm -- 30.29 in1025.7 mb 0.00 in0.0 mm 0.00 in0.0 mm 0.00 in0.0 mm
10:36 PM 46.9°F8.3°C 35.0°F1.7°C 63% Calm Calm -- 30.29 in1025.7 mb 0.00 in0.0 mm 0.00 in0.0 mm 0.00 in0.0 mm
10:38 PM 46.8°F8.2°C 34.9°F1.6°C 63% Calm Calm -- 30.28 in1025.4 mb 0.00 in0.0 mm 0.00 in0.0 mm 0.00 in0.0 mm
10:40 PM 46.9°F8.3°C 34.6°F1.4°C 62% Calm Calm -- 30.28 in1025.4 mb 0.00 in0.0 mm 0.00 in0.0 mm 0.00 in0.0 mm
10:42 PM 46.9°F8.3°C 34.6°F1.4°C 62% Calm Calm -- 30.28 in1025.4 mb 0.00 in0.0 mm 0.00 in0.0 mm 0.00 in0.0 mm
10:44 PM 46.9°F8.3°C 34.6°F1.4°C 62% Calm Calm -- 30.28 in1025.4 mb 0.00 in0.0 mm 0.00 in0.0 mm 0.00 in0.0 mm
10:46 PM 47.0°F8.3°C 34.7°F1.5°C 62% Calm Calm -- 30.28 in1025.4 mb 0.00 in0.0 mm 0.00 in0.0 mm 0.00 in0.0 mm
10:48 PM 47.1°F8.4°C 34.8°F1.6°C 62% Calm Calm -- 30.28 in1025.4 mb 0.00 in0.0 mm 0.00 in0.0 mm 0.00 in0.0 mm
10:50 PM 47.2°F8.4°C 34.9°F1.6°C 62% Calm Calm -- 30.28 in1025.4 mb 0.00 in0.0 mm 0.00 in0.0 mm 0.00 in0.0 mm
10:52 PM 47.2°F8.4°C 34.9°F1.6°C 62% Calm Calm -- 30.28 in1025.4 mb 0.00 in0.0 mm 0.00 in0.0 mm 0.00 in0.0 mm
10:54 PM 47.2°F8.4°C 34.9°F1.6°C 62% Calm Calm -- 30.28 in1025.4 mb 0.00 in0.0 mm 0.00 in0.0 mm 0.00 in0.0 mm
10:56 PM 47.3°F8.5°C 35.4°F1.9°C 63% Calm Calm -- 30.28 in1025.4 mb 0.00 in0.0 mm 0.00 in0.0 mm 0.00 in0.0 mm
10:58 PM 47.3°F8.5°C 35.8°F2.1°C 64% Calm Calm -- 30.28 in1025.4 mb 0.00 in0.0 mm 0.00 in0.0 mm 0.00 in0.0 mm
11:00 PM 47.3°F8.5°C 36.2°F2.3°C 65% Calm Calm -- 30.28 in1025.4 mb 0.00 in0.0 mm 0.00 in0.0 mm 0.00 in0.0 mm
11:02 PM 47.3°F8.5°C 36.2°F2.3°C 65% Calm Calm -- 30.28 in1025.4 mb 0.00 in0.0 mm 0.00 in0.0 mm 0.00 in0.0 mm
11:04 PM 47.2°F8.4°C 36.4°F2.4°C 66% Calm Calm -- 30.28 in1025.4 mb 0.00 in0.0 mm 0.00 in0.0 mm 0.00 in0.0 mm
11:06 PM 47.2°F8.4°C 36.4°F2.4°C 66% Calm Calm -- 30.28 in1025.4 mb 0.00 in0.0 mm 0.00 in0.0 mm 0.00 in0.0 mm
11:08 PM 47.2°F8.4°C 36.8°F2.7°C 67% Calm Calm -- 30.28 in1025.4 mb 0.00 in0.0 mm 0.00 in0.0 mm 0.00 in0.0 mm
11:10 PM 47.1°F8.4°C 36.7°F2.6°C 67% Calm Calm -- 30.28 in1025.4 mb 0.00 in0.0 mm 0.00 in0.0 mm 0.00 in0.0 mm
11:12 PM 47.0°F8.3°C 36.6°F2.6°C 67% Calm Calm -- 30.28 in1025.4 mb 0.00 in0.0 mm 0.00 in0.0 mm 0.00 in0.0 mm
11:14 PM 47.0°F8.3°C 37.0°F2.8°C 68% Calm Calm -- 30.28 in1025.4 mb 0.00 in0.0 mm 0.00 in0.0 mm 0.00 in0.0 mm
11:16 PM 47.0°F8.3°C 37.0°F2.8°C 68% 2.0 mph E3.2 kmh E 2.0 mph3.2 kmh 30.28 in1025.4 mb 0.00 in0.0 mm 0.00 in0.0 mm 0.00 in0.0 mm
11:18 PM 46.9°F8.3°C 37.3°F2.9°C 69% 2.0 mph E3.2 kmh E 2.0 mph3.2 kmh 30.28 in1025.4 mb 0.00 in0.0 mm 0.00 in0.0 mm 0.00 in0.0 mm
11:20 PM 46.8°F8.2°C 37.2°F2.9°C 69% 3.0 mph E4.8 kmh E 3.0 mph4.8 kmh 30.28 in1025.4 mb 0.00 in0.0 mm 0.00 in0.0 mm 0.00 in0.0 mm
11:22 PM 46.7°F8.2°C 37.1°F2.8°C 69% 1.0 mph E1.6 kmh E 3.0 mph4.8 kmh 30.28 in1025.4 mb 0.00 in0.0 mm 0.00 in0.0 mm 0.00 in0.0 mm
11:24 PM 46.7°F8.2°C 37.1°F2.8°C 69% 2.0 mph E3.2 kmh E 3.0 mph4.8 kmh 30.28 in1025.4 mb 0.00 in0.0 mm 0.00 in0.0 mm 0.00 in0.0 mm
11:26 PM 46.6°F8.1°C 37.4°F3.0°C 70% 1.0 mph E1.6 kmh E 3.0 mph4.8 kmh 30.28 in1025.4 mb 0.00 in0.0 mm 0.00 in0.0 mm 0.00 in0.0 mm
11:28 PM 46.6°F8.1°C 37.4°F3.0°C 70% 2.0 mph E3.2 kmh E 3.0 mph4.8 kmh 30.28 in1025.4 mb 0.00 in0.0 mm 0.00 in0.0 mm 0.00 in0.0 mm
11:30 PM 46.4°F8.0°C 37.2°F2.9°C 70% 1.0 mph E1.6 kmh E 3.0 mph4.8 kmh 30.28 in1025.4 mb 0.00 in0.0 mm 0.00 in0.0 mm 0.00 in0.0 mm
11:32 PM 46.2°F7.9°C 37.3°F2.9°C 71% 2.0 mph E3.2 kmh E 2.0 mph3.2 kmh 30.28 in1025.4 mb 0.00 in0.0 mm 0.00 in0.0 mm 0.00 in0.0 mm
11:34 PM 46.1°F7.8°C 37.2°F2.9°C 71% 1.0 mph E1.6 kmh E 3.0 mph4.8 kmh 30.27 in1025.1 mb 0.00 in0.0 mm 0.00 in0.0 mm 0.00 in0.0 mm
11:36 PM 45.9°F7.7°C 37.0°F2.8°C 71% 3.0 mph E4.8 kmh E 3.0 mph4.8 kmh 30.27 in1025.1 mb 0.00 in0.0 mm 0.00 in0.0 mm 0.00 in0.0 mm
11:38 PM 45.9°F7.7°C 37.0°F2.8°C 71% 3.0 mph E4.8 kmh E 3.0 mph4.8 kmh 30.28 in1025.4 mb 0.00 in0.0 mm 0.00 in0.0 mm 0.00 in0.0 mm
11:40 PM 45.8°F7.7°C 37.3°F2.9°C 72% 2.0 mph E3.2 kmh E 3.0 mph4.8 kmh 30.28 in1025.4 mb 0.00 in0.0 mm 0.00 in0.0 mm 0.00 in0.0 mm
11:42 PM 45.7°F7.6°C 37.2°F2.9°C 72% 1.0 mph E1.6 kmh E 3.0 mph4.8 kmh 30.27 in1025.1 mb 0.00 in0.0 mm 0.00 in0.0 mm 0.00 in0.0 mm
11:44 PM 45.7°F7.6°C 37.6°F3.1°C 73% 1.0 mph E1.6 kmh E 3.0 mph4.8 kmh 30.27 in1025.1 mb 0.00 in0.0 mm 0.00 in0.0 mm 0.00 in0.0 mm
11:46 PM 45.7°F7.6°C 37.6°F3.1°C 73% 1.0 mph E1.6 kmh E 4.0 mph6.4 kmh 30.27 in1025.1 mb 0.00 in0.0 mm 0.00 in0.0 mm 0.00 in0.0 mm
11:48 PM 45.5°F7.5°C 37.7°F3.2°C 74% 3.0 mph E4.8 kmh E 4.0 mph6.4 kmh 30.27 in1025.1 mb 0.00 in0.0 mm 0.00 in0.0 mm 0.00 in0.0 mm
11:50 PM 45.5°F7.5°C 37.7°F3.2°C 74% 1.0 mph E1.6 kmh E 4.0 mph6.4 kmh 30.27 in1025.1 mb 0.00 in0.0 mm 0.00 in0.0 mm 0.00 in0.0 mm
11:52 PM 45.5°F7.5°C 37.7°F3.2°C 74% 2.0 mph E3.2 kmh E 4.0 mph6.4 kmh 30.27 in1025.1 mb 0.00 in0.0 mm 0.00 in0.0 mm 0.00 in0.0 mm
11:54 PM 45.5°F7.5°C 37.7°F3.2°C 74% 2.0 mph E3.2 kmh E 4.0 mph6.4 kmh 30.27 in1025.1 mb 0.00 in0.0 mm 0.00 in0.0 mm 0.00 in0.0 mm
11:56 PM 45.5°F7.5°C 37.7°F3.2°C 74% 2.0 mph E3.2 kmh E 4.0 mph6.4 kmh 30.27 in1025.1 mb 0.00 in0.0 mm 0.00 in0.0 mm 0.00 in0.0 mm
11:58 PM 45.5°F7.5°C 37.7°F3.2°C 74% 3.0 mph E4.8 kmh E 4.0 mph6.4 kmh 30.27 in1025.1 mb 0.00 in0.0 mm 0.00 in0.0 mm 0.00 in0.0 mm